<?xml version="1.0" encoding="UTF-8" standalone="no" ?>
<gpx xmlns="http://www.topografix.com/GPX/1/1" xmlns:xsi="http://www.w3.org/2001/XMLSchema-instance" xsi:schemaLocation="http://www.topografix.com/GPX/1/1 http://www.topografix.com/GPX/1/1/gpx.xsd" version="1.1" creator="VisuGPX - https://www.visugpx.com">
  <metadata>
    <name>Rallye VTT XC PO Samedi</name>
    <desc><![CDATA[







































]]></desc>
  </metadata>
  <trk>
    <name><![CDATA[SP5 x 2 tours]]></name>
    <desc><![CDATA[



]]></desc>
    <extensions>
      <line xmlns="http://www.topografix.com/GPX/gpx_style/0/2">
        <color>FF0000</color>
        <width>4</width>
        <dasharray>8</dasharray>
          <extensions>
            <sens>1</sens>
          </extensions>
      </line>
    </extensions>
    <trkseg>
      <trkpt lat="44.22" lon="4.4799">
        <ele>80.8</ele>
        <time>2024-08-31T14:10:48Z</time>
      </trkpt>
      <trkpt lat="44.21999" lon="4.47989">
        <ele>80.8</ele>
        <time>2024-08-31T14:10:49Z</time>
      </trkpt>
      <trkpt lat="44.21998" lon="4.47989">
        <ele>80.8</ele>
        <time>2024-08-31T14:10:50Z</time>
      </trkpt>
      <trkpt lat="44.21998" lon="4.47988">
        <ele>80.8</ele>
        <time>2024-08-31T14:10:51Z</time>
      </trkpt>
      <trkpt lat="44.21999" lon="4.47988">
        <ele>80.8</ele>
        <time>2024-08-31T14:10:52Z</time>
      </trkpt>
      <trkpt lat="44.21999" lon="4.47987">
        <ele>80.8</ele>
        <time>2024-08-31T14:10:53Z</time>
      </trkpt>
      <trkpt lat="44.21999" lon="4.47986">
        <ele>80.8</ele>
        <time>2024-08-31T14:10:54Z</time>
      </trkpt>
      <trkpt lat="44.22" lon="4.47985">
        <ele>80.8</ele>
        <time>2024-08-31T14:10:55Z</time>
      </trkpt>
      <trkpt lat="44.22001" lon="4.47984">
        <ele>80.8</ele>
        <time>2024-08-31T14:10:56Z</time>
      </trkpt>
      <trkpt lat="44.22002" lon="4.47982">
        <ele>80.8</ele>
        <time>2024-08-31T14:10:57Z</time>
      </trkpt>
      <trkpt lat="44.22003" lon="4.47981">
        <ele>80.8</ele>
        <time>2024-08-31T14:10:58Z</time>
      </trkpt>
      <trkpt lat="44.22003" lon="4.47979">
        <ele>80.8</ele>
        <time>2024-08-31T14:10:59Z</time>
      </trkpt>
      <trkpt lat="44.22003" lon="4.47977">
        <ele>80.8</ele>
        <time>2024-08-31T14:11:00Z</time>
      </trkpt>
      <trkpt lat="44.22003" lon="4.47975">
        <ele>80.8</ele>
        <time>2024-08-31T14:11:01Z</time>
      </trkpt>
      <trkpt lat="44.22002" lon="4.47975">
        <ele>80.8</ele>
        <time>2024-08-31T14:11:02Z</time>
      </trkpt>
      <trkpt lat="44.22001" lon="4.47972">
        <ele>80.8</ele>
        <time>2024-08-31T14:11:03Z</time>
      </trkpt>
      <trkpt lat="44.22001" lon="4.47971">
        <ele>80.8</ele>
        <time>2024-08-31T14:11:04Z</time>
      </trkpt>
      <trkpt lat="44.22001" lon="4.4797">
        <ele>80.8</ele>
        <time>2024-08-31T14:11:05Z</time>
      </trkpt>
      <trkpt lat="44.22001" lon="4.47967">
        <ele>80.8</ele>
        <time>2024-08-31T14:11:06Z</time>
      </trkpt>
      <trkpt lat="44.22002" lon="4.47965">
        <ele>80.8</ele>
        <time>2024-08-31T14:11:07Z</time>
      </trkpt>
      <trkpt lat="44.22004" lon="4.47961">
        <ele>80.8</ele>
        <time>2024-08-31T14:11:08Z</time>
      </trkpt>
      <trkpt lat="44.22004" lon="4.4796">
        <ele>80.8</ele>
        <time>2024-08-31T14:11:09Z</time>
      </trkpt>
      <trkpt lat="44.22007" lon="4.47956">
        <ele>80.8</ele>
        <time>2024-08-31T14:11:10Z</time>
      </trkpt>
      <trkpt lat="44.22007" lon="4.47955">
        <ele>80.8</ele>
        <time>2024-08-31T14:11:11Z</time>
      </trkpt>
      <trkpt lat="44.22009" lon="4.47951">
        <ele>80.8</ele>
        <time>2024-08-31T14:11:12Z</time>
      </trkpt>
      <trkpt lat="44.2201" lon="4.4795">
        <ele>80.8</ele>
        <time>2024-08-31T14:11:13Z</time>
      </trkpt>
      <trkpt lat="44.22012" lon="4.47946">
        <ele>80.8</ele>
        <time>2024-08-31T14:11:14Z</time>
      </trkpt>
      <trkpt lat="44.22013" lon="4.47945">
        <ele>80.8</ele>
        <time>2024-08-31T14:11:15Z</time>
      </trkpt>
      <trkpt lat="44.22015" lon="4.47942">
        <ele>80.9</ele>
        <time>2024-08-31T14:11:16Z</time>
      </trkpt>
      <trkpt lat="44.22015" lon="4.47941">
        <ele>80.9</ele>
        <time>2024-08-31T14:11:17Z</time>
      </trkpt>
      <trkpt lat="44.22016" lon="4.47936">
        <ele>80.9</ele>
        <time>2024-08-31T14:11:18Z</time>
      </trkpt>
      <trkpt lat="44.22017" lon="4.47935">
        <ele>80.9</ele>
        <time>2024-08-31T14:11:19Z</time>
      </trkpt>
      <trkpt lat="44.22018" lon="4.47931">
        <ele>80.9</ele>
        <time>2024-08-31T14:11:20Z</time>
      </trkpt>
      <trkpt lat="44.22018" lon="4.47929">
        <ele>80.9</ele>
        <time>2024-08-31T14:11:21Z</time>
      </trkpt>
      <trkpt lat="44.2202" lon="4.47925">
        <ele>80.9</ele>
        <time>2024-08-31T14:11:22Z</time>
      </trkpt>
      <trkpt lat="44.22021" lon="4.47924">
        <ele>80.9</ele>
        <time>2024-08-31T14:11:23Z</time>
      </trkpt>
      <trkpt lat="44.22022" lon="4.47922">
        <ele>80.9</ele>
        <time>2024-08-31T14:11:24Z</time>
      </trkpt>
      <trkpt lat="44.22023" lon="4.47921">
        <ele>81</ele>
        <time>2024-08-31T14:11:25Z</time>
      </trkpt>
      <trkpt lat="44.22023" lon="4.47919">
        <ele>81</ele>
        <time>2024-08-31T14:11:26Z</time>
      </trkpt>
      <trkpt lat="44.22024" lon="4.47916">
        <ele>81</ele>
        <time>2024-08-31T14:11:27Z</time>
      </trkpt>
      <trkpt lat="44.22025" lon="4.47914">
        <ele>81</ele>
        <time>2024-08-31T14:11:28Z</time>
      </trkpt>
      <trkpt lat="44.22026" lon="4.47913">
        <ele>81</ele>
        <time>2024-08-31T14:11:29Z</time>
      </trkpt>
      <trkpt lat="44.22029" lon="4.47912">
        <ele>81</ele>
        <time>2024-08-31T14:11:30Z</time>
      </trkpt>
      <trkpt lat="44.2203" lon="4.47911">
        <ele>81</ele>
        <time>2024-08-31T14:11:31Z</time>
      </trkpt>
      <trkpt lat="44.22032" lon="4.47907">
        <ele>81.1</ele>
        <time>2024-08-31T14:11:32Z</time>
      </trkpt>
      <trkpt lat="44.22032" lon="4.47906">
        <ele>81.1</ele>
        <time>2024-08-31T14:11:33Z</time>
      </trkpt>
      <trkpt lat="44.22034" lon="4.47902">
        <ele>81.1</ele>
        <time>2024-08-31T14:11:34Z</time>
      </trkpt>
      <trkpt lat="44.22034" lon="4.479">
        <ele>81.1</ele>
        <time>2024-08-31T14:11:35Z</time>
      </trkpt>
      <trkpt lat="44.22034" lon="4.47896">
        <ele>81</ele>
        <time>2024-08-31T14:11:36Z</time>
      </trkpt>
      <trkpt lat="44.22034" lon="4.47894">
        <ele>81</ele>
        <time>2024-08-31T14:11:37Z</time>
      </trkpt>
      <trkpt lat="44.22034" lon="4.4789">
        <ele>81</ele>
        <time>2024-08-31T14:11:38Z</time>
      </trkpt>
      <trkpt lat="44.22034" lon="4.47889">
        <ele>81</ele>
        <time>2024-08-31T14:11:39Z</time>
      </trkpt>
      <trkpt lat="44.22032" lon="4.47884">
        <ele>81</ele>
        <time>2024-08-31T14:11:40Z</time>
      </trkpt>
      <trkpt lat="44.22031" lon="4.47883">
        <ele>81</ele>
        <time>2024-08-31T14:11:41Z</time>
      </trkpt>
      <trkpt lat="44.22029" lon="4.47879">
        <ele>80.9</ele>
        <time>2024-08-31T14:11:42Z</time>
      </trkpt>
      <trkpt lat="44.22028" lon="4.47878">
        <ele>80.9</ele>
        <time>2024-08-31T14:11:43Z</time>
      </trkpt>
      <trkpt lat="44.22025" lon="4.47875">
        <ele>80.9</ele>
        <time>2024-08-31T14:11:44Z</time>
      </trkpt>
      <trkpt lat="44.22024" lon="4.47875">
        <ele>80.9</ele>
        <time>2024-08-31T14:11:45Z</time>
      </trkpt>
      <trkpt lat="44.22023" lon="4.47874">
        <ele>80.8</ele>
        <time>2024-08-31T14:11:46Z</time>
      </trkpt>
      <trkpt lat="44.22021" lon="4.47873">
        <ele>80.8</ele>
        <time>2024-08-31T14:11:47Z</time>
      </trkpt>
      <trkpt lat="44.2202" lon="4.47871">
        <ele>80.8</ele>
        <time>2024-08-31T14:11:48Z</time>
      </trkpt>
      <trkpt lat="44.22019" lon="4.4787">
        <ele>80.8</ele>
        <time>2024-08-31T14:11:49Z</time>
      </trkpt>
      <trkpt lat="44.22017" lon="4.47868">
        <ele>80.8</ele>
        <time>2024-08-31T14:11:50Z</time>
      </trkpt>
      <trkpt lat="44.22016" lon="4.47867">
        <ele>80.8</ele>
        <time>2024-08-31T14:11:51Z</time>
      </trkpt>
      <trkpt lat="44.22013" lon="4.47864">
        <ele>80.7</ele>
        <time>2024-08-31T14:11:52Z</time>
      </trkpt>
      <trkpt lat="44.22013" lon="4.47863">
        <ele>80.7</ele>
        <time>2024-08-31T14:11:53Z</time>
      </trkpt>
      <trkpt lat="44.2201" lon="4.47861">
        <ele>80.7</ele>
        <time>2024-08-31T14:11:54Z</time>
      </trkpt>
      <trkpt lat="44.22009" lon="4.4786">
        <ele>80.7</ele>
        <time>2024-08-31T14:11:55Z</time>
      </trkpt>
      <trkpt lat="44.22007" lon="4.47857">
        <ele>80.7</ele>
        <time>2024-08-31T14:11:56Z</time>
      </trkpt>
      <trkpt lat="44.22006" lon="4.47856">
        <ele>80.7</ele>
        <time>2024-08-31T14:11:57Z</time>
      </trkpt>
      <trkpt lat="44.22003" lon="4.47854">
        <ele>80.7</ele>
        <time>2024-08-31T14:11:58Z</time>
      </trkpt>
      <trkpt lat="44.22003" lon="4.47853">
        <ele>80.7</ele>
        <time>2024-08-31T14:11:59Z</time>
      </trkpt>
      <trkpt lat="44.22" lon="4.47851">
        <ele>80.6</ele>
        <time>2024-08-31T14:12:00Z</time>
      </trkpt>
      <trkpt lat="44.21999" lon="4.4785">
        <ele>80.6</ele>
        <time>2024-08-31T14:12:01Z</time>
      </trkpt>
      <trkpt lat="44.21997" lon="4.47848">
        <ele>80.6</ele>
        <time>2024-08-31T14:12:02Z</time>
      </trkpt>
      <trkpt lat="44.21996" lon="4.47847">
        <ele>80.6</ele>
        <time>2024-08-31T14:12:03Z</time>
      </trkpt>
      <trkpt lat="44.21994" lon="4.47844">
        <ele>80.6</ele>
        <time>2024-08-31T14:12:04Z</time>
      </trkpt>
      <trkpt lat="44.21993" lon="4.47844">
        <ele>80.6</ele>
        <time>2024-08-31T14:12:05Z</time>
      </trkpt>
      <trkpt lat="44.21991" lon="4.47841">
        <ele>80.6</ele>
        <time>2024-08-31T14:12:06Z</time>
      </trkpt>
      <trkpt lat="44.21991" lon="4.4784">
        <ele>80.5</ele>
        <time>2024-08-31T14:12:07Z</time>
      </trkpt>
      <trkpt lat="44.21989" lon="4.47838">
        <ele>80.5</ele>
        <time>2024-08-31T14:12:08Z</time>
      </trkpt>
      <trkpt lat="44.21988" lon="4.47837">
        <ele>80.5</ele>
        <time>2024-08-31T14:12:09Z</time>
      </trkpt>
      <trkpt lat="44.21986" lon="4.47835">
        <ele>80.5</ele>
        <time>2024-08-31T14:12:10Z</time>
      </trkpt>
      <trkpt lat="44.21985" lon="4.47834">
        <ele>80.5</ele>
        <time>2024-08-31T14:12:11Z</time>
      </trkpt>
      <trkpt lat="44.21982" lon="4.47832">
        <ele>80.5</ele>
        <time>2024-08-31T14:12:12Z</time>
      </trkpt>
      <trkpt lat="44.21981" lon="4.47831">
        <ele>80.5</ele>
        <time>2024-08-31T14:12:13Z</time>
      </trkpt>
      <trkpt lat="44.21979" lon="4.47828">
        <ele>80.4</ele>
        <time>2024-08-31T14:12:14Z</time>
      </trkpt>
      <trkpt lat="44.21978" lon="4.47827">
        <ele>80.4</ele>
        <time>2024-08-31T14:12:15Z</time>
      </trkpt>
      <trkpt lat="44.21976" lon="4.47825">
        <ele>80.4</ele>
        <time>2024-08-31T14:12:16Z</time>
      </trkpt>
      <trkpt lat="44.21976" lon="4.47824">
        <ele>80.4</ele>
        <time>2024-08-31T14:12:17Z</time>
      </trkpt>
      <trkpt lat="44.21974" lon="4.47821">
        <ele>80.4</ele>
        <time>2024-08-31T14:12:18Z</time>
      </trkpt>
      <trkpt lat="44.21973" lon="4.4782">
        <ele>80.4</ele>
        <time>2024-08-31T14:12:19Z</time>
      </trkpt>
      <trkpt lat="44.21971" lon="4.47817">
        <ele>80.4</ele>
        <time>2024-08-31T14:12:20Z</time>
      </trkpt>
      <trkpt lat="44.2197" lon="4.47816">
        <ele>80.4</ele>
        <time>2024-08-31T14:12:21Z</time>
      </trkpt>
      <trkpt lat="44.21968" lon="4.47812">
        <ele>80.3</ele>
        <time>2024-08-31T14:12:22Z</time>
      </trkpt>
      <trkpt lat="44.21967" lon="4.47811">
        <ele>80.3</ele>
        <time>2024-08-31T14:12:23Z</time>
      </trkpt>
      <trkpt lat="44.21965" lon="4.47808">
        <ele>80.3</ele>
        <time>2024-08-31T14:12:24Z</time>
      </trkpt>
      <trkpt lat="44.21964" lon="4.47807">
        <ele>80.3</ele>
        <time>2024-08-31T14:12:25Z</time>
      </trkpt>
      <trkpt lat="44.21962" lon="4.47804">
        <ele>80.4</ele>
        <time>2024-08-31T14:12:26Z</time>
      </trkpt>
      <trkpt lat="44.21961" lon="4.47803">
        <ele>80.4</ele>
        <time>2024-08-31T14:12:27Z</time>
      </trkpt>
      <trkpt lat="44.21958" lon="4.478">
        <ele>80.4</ele>
        <time>2024-08-31T14:12:28Z</time>
      </trkpt>
      <trkpt lat="44.21958" lon="4.47799">
        <ele>80.4</ele>
        <time>2024-08-31T14:12:29Z</time>
      </trkpt>
      <trkpt lat="44.21955" lon="4.47797">
        <ele>80.4</ele>
        <time>2024-08-31T14:12:30Z</time>
      </trkpt>
      <trkpt lat="44.21955" lon="4.47796">
        <ele>80.4</ele>
        <time>2024-08-31T14:12:31Z</time>
      </trkpt>
      <trkpt lat="44.21952" lon="4.47792">
        <ele>80.5</ele>
        <time>2024-08-31T14:12:32Z</time>
      </trkpt>
      <trkpt lat="44.21952" lon="4.47791">
        <ele>80.5</ele>
        <time>2024-08-31T14:12:33Z</time>
      </trkpt>
      <trkpt lat="44.2195" lon="4.47788">
        <ele>80.5</ele>
        <time>2024-08-31T14:12:34Z</time>
      </trkpt>
      <trkpt lat="44.21949" lon="4.47787">
        <ele>80.5</ele>
        <time>2024-08-31T14:12:35Z</time>
      </trkpt>
      <trkpt lat="44.21949" lon="4.47786">
        <ele>80.6</ele>
        <time>2024-08-31T14:12:36Z</time>
      </trkpt>
      <trkpt lat="44.21948" lon="4.47784">
        <ele>80.6</ele>
        <time>2024-08-31T14:12:37Z</time>
      </trkpt>
      <trkpt lat="44.21946" lon="4.47782">
        <ele>80.6</ele>
        <time>2024-08-31T14:12:38Z</time>
      </trkpt>
      <trkpt lat="44.21945" lon="4.47782">
        <ele>80.6</ele>
        <time>2024-08-31T14:12:39Z</time>
      </trkpt>
      <trkpt lat="44.21944" lon="4.47781">
        <ele>80.6</ele>
        <time>2024-08-31T14:12:40Z</time>
      </trkpt>
      <trkpt lat="44.21944" lon="4.4778">
        <ele>80.7</ele>
        <time>2024-08-31T14:12:41Z</time>
      </trkpt>
      <trkpt lat="44.21943" lon="4.47779">
        <ele>80.7</ele>
        <time>2024-08-31T14:12:42Z</time>
      </trkpt>
      <trkpt lat="44.21942" lon="4.47779">
        <ele>80.7</ele>
        <time>2024-08-31T14:12:43Z</time>
      </trkpt>
      <trkpt lat="44.21942" lon="4.47778">
        <ele>80.7</ele>
        <time>2024-08-31T14:12:44Z</time>
      </trkpt>
      <trkpt lat="44.21942" lon="4.47778">
        <ele>80.7</ele>
        <time>2024-08-31T14:12:45Z</time>
      </trkpt>
      <trkpt lat="44.21942" lon="4.47778">
        <ele>80.7</ele>
        <time>2024-08-31T14:12:46Z</time>
      </trkpt>
      <trkpt lat="44.21942" lon="4.47778">
        <ele>80.7</ele>
        <time>2024-08-31T14:12:47Z</time>
      </trkpt>
      <trkpt lat="44.21942" lon="4.47778">
        <ele>80.7</ele>
        <time>2024-08-31T14:12:48Z</time>
      </trkpt>
      <trkpt lat="44.21941" lon="4.47777">
        <ele>80.7</ele>
        <time>2024-08-31T14:12:49Z</time>
      </trkpt>
      <trkpt lat="44.21941" lon="4.47776">
        <ele>80.7</ele>
        <time>2024-08-31T14:12:50Z</time>
      </trkpt>
      <trkpt lat="44.21941" lon="4.47776">
        <ele>80.7</ele>
        <time>2024-08-31T14:12:51Z</time>
      </trkpt>
      <trkpt lat="44.21941" lon="4.47776">
        <ele>80.8</ele>
        <time>2024-08-31T14:12:52Z</time>
      </trkpt>
      <trkpt lat="44.21941" lon="4.47776">
        <ele>80.8</ele>
        <time>2024-08-31T14:12:53Z</time>
      </trkpt>
      <trkpt lat="44.21941" lon="4.47776">
        <ele>80.8</ele>
        <time>2024-08-31T14:12:54Z</time>
      </trkpt>
      <trkpt lat="44.21941" lon="4.47776">
        <ele>80.8</ele>
        <time>2024-08-31T14:12:55Z</time>
      </trkpt>
      <trkpt lat="44.21942" lon="4.47776">
        <ele>80.8</ele>
        <time>2024-08-31T14:12:56Z</time>
      </trkpt>
      <trkpt lat="44.21942" lon="4.47776">
        <ele>80.8</ele>
        <time>2024-08-31T14:12:57Z</time>
      </trkpt>
      <trkpt lat="44.21941" lon="4.47776">
        <ele>80.8</ele>
        <time>2024-08-31T14:12:58Z</time>
      </trkpt>
      <trkpt lat="44.2194" lon="4.47775">
        <ele>80.8</ele>
        <time>2024-08-31T14:12:59Z</time>
      </trkpt>
      <trkpt lat="44.2194" lon="4.47775">
        <ele>80.8</ele>
        <time>2024-08-31T14:13:00Z</time>
      </trkpt>
      <trkpt lat="44.21938" lon="4.47773">
        <ele>80.9</ele>
        <time>2024-08-31T14:13:01Z</time>
      </trkpt>
      <trkpt lat="44.21937" lon="4.47772">
        <ele>80.9</ele>
        <time>2024-08-31T14:13:02Z</time>
      </trkpt>
      <trkpt lat="44.21936" lon="4.47771">
        <ele>80.9</ele>
        <time>2024-08-31T14:13:03Z</time>
      </trkpt>
      <trkpt lat="44.21934" lon="4.47768">
        <ele>81</ele>
        <time>2024-08-31T14:13:04Z</time>
      </trkpt>
      <trkpt lat="44.21933" lon="4.47767">
        <ele>81.1</ele>
        <time>2024-08-31T14:13:05Z</time>
      </trkpt>
      <trkpt lat="44.21932" lon="4.47765">
        <ele>81.1</ele>
        <time>2024-08-31T14:13:06Z</time>
      </trkpt>
      <trkpt lat="44.2193" lon="4.47764">
        <ele>81.2</ele>
        <time>2024-08-31T14:13:07Z</time>
      </trkpt>
      <trkpt lat="44.21929" lon="4.47762">
        <ele>81.2</ele>
        <time>2024-08-31T14:13:08Z</time>
      </trkpt>
      <trkpt lat="44.21928" lon="4.47761">
        <ele>81.3</ele>
        <time>2024-08-31T14:13:09Z</time>
      </trkpt>
      <trkpt lat="44.21927" lon="4.47759">
        <ele>81.3</ele>
        <time>2024-08-31T14:13:10Z</time>
      </trkpt>
      <trkpt lat="44.21925" lon="4.47758">
        <ele>81.4</ele>
        <time>2024-08-31T14:13:11Z</time>
      </trkpt>
      <trkpt lat="44.21923" lon="4.47757">
        <ele>81.5</ele>
        <time>2024-08-31T14:13:12Z</time>
      </trkpt>
      <trkpt lat="44.21922" lon="4.47756">
        <ele>81.5</ele>
        <time>2024-08-31T14:13:13Z</time>
      </trkpt>
      <trkpt lat="44.21921" lon="4.47755">
        <ele>81.6</ele>
        <time>2024-08-31T14:13:14Z</time>
      </trkpt>
      <trkpt lat="44.21919" lon="4.47754">
        <ele>81.6</ele>
        <time>2024-08-31T14:13:15Z</time>
      </trkpt>
      <trkpt lat="44.21918" lon="4.47755">
        <ele>81.7</ele>
        <time>2024-08-31T14:13:16Z</time>
      </trkpt>
      <trkpt lat="44.21916" lon="4.47755">
        <ele>81.7</ele>
        <time>2024-08-31T14:13:17Z</time>
      </trkpt>
      <trkpt lat="44.21913" lon="4.47755">
        <ele>81.8</ele>
        <time>2024-08-31T14:13:18Z</time>
      </trkpt>
      <trkpt lat="44.21912" lon="4.47754">
        <ele>81.9</ele>
        <time>2024-08-31T14:13:19Z</time>
      </trkpt>
      <trkpt lat="44.21911" lon="4.47753">
        <ele>82</ele>
        <time>2024-08-31T14:13:20Z</time>
      </trkpt>
      <trkpt lat="44.21909" lon="4.47752">
        <ele>82</ele>
        <time>2024-08-31T14:13:21Z</time>
      </trkpt>
      <trkpt lat="44.21909" lon="4.47751">
        <ele>82.1</ele>
        <time>2024-08-31T14:13:22Z</time>
      </trkpt>
      <trkpt lat="44.21908" lon="4.47751">
        <ele>82.1</ele>
        <time>2024-08-31T14:13:23Z</time>
      </trkpt>
      <trkpt lat="44.21907" lon="4.47751">
        <ele>82.1</ele>
        <time>2024-08-31T14:13:24Z</time>
      </trkpt>
      <trkpt lat="44.21907" lon="4.47751">
        <ele>82.1</ele>
        <time>2024-08-31T14:13:25Z</time>
      </trkpt>
      <trkpt lat="44.21907" lon="4.4775">
        <ele>82.1</ele>
        <time>2024-08-31T14:13:26Z</time>
      </trkpt>
      <trkpt lat="44.21907" lon="4.4775">
        <ele>82.2</ele>
        <time>2024-08-31T14:13:27Z</time>
      </trkpt>
      <trkpt lat="44.21906" lon="4.4775">
        <ele>82.2</ele>
        <time>2024-08-31T14:13:28Z</time>
      </trkpt>
      <trkpt lat="44.21906" lon="4.4775">
        <ele>82.2</ele>
        <time>2024-08-31T14:13:29Z</time>
      </trkpt>
      <trkpt lat="44.21906" lon="4.47749">
        <ele>82.2</ele>
        <time>2024-08-31T14:13:30Z</time>
      </trkpt>
      <trkpt lat="44.21906" lon="4.47749">
        <ele>82.2</ele>
        <time>2024-08-31T14:13:31Z</time>
      </trkpt>
      <trkpt lat="44.21906" lon="4.47748">
        <ele>82.2</ele>
        <time>2024-08-31T14:13:32Z</time>
      </trkpt>
      <trkpt lat="44.21906" lon="4.47748">
        <ele>82.2</ele>
        <time>2024-08-31T14:13:33Z</time>
      </trkpt>
      <trkpt lat="44.21906" lon="4.47748">
        <ele>82.2</ele>
        <time>2024-08-31T14:13:34Z</time>
      </trkpt>
      <trkpt lat="44.21906" lon="4.47748">
        <ele>82.2</ele>
        <time>2024-08-31T14:13:35Z</time>
      </trkpt>
      <trkpt lat="44.21906" lon="4.47748">
        <ele>82.2</ele>
        <time>2024-08-31T14:13:36Z</time>
      </trkpt>
      <trkpt lat="44.21905" lon="4.47747">
        <ele>82.3</ele>
        <time>2024-08-31T14:13:37Z</time>
      </trkpt>
      <trkpt lat="44.21905" lon="4.47746">
        <ele>82.3</ele>
        <time>2024-08-31T14:13:38Z</time>
      </trkpt>
      <trkpt lat="44.21904" lon="4.47745">
        <ele>82.4</ele>
        <time>2024-08-31T14:13:39Z</time>
      </trkpt>
      <trkpt lat="44.21902" lon="4.47744">
        <ele>82.4</ele>
        <time>2024-08-31T14:13:40Z</time>
      </trkpt>
      <trkpt lat="44.21901" lon="4.47743">
        <ele>82.4</ele>
        <time>2024-08-31T14:13:41Z</time>
      </trkpt>
      <trkpt lat="44.219" lon="4.47742">
        <ele>82.4</ele>
        <time>2024-08-31T14:13:42Z</time>
      </trkpt>
      <trkpt lat="44.21899" lon="4.47741">
        <ele>82.4</ele>
        <time>2024-08-31T14:13:43Z</time>
      </trkpt>
      <trkpt lat="44.21897" lon="4.47741">
        <ele>82.5</ele>
        <time>2024-08-31T14:13:44Z</time>
      </trkpt>
      <trkpt lat="44.21897" lon="4.47741">
        <ele>82.5</ele>
        <time>2024-08-31T14:13:45Z</time>
      </trkpt>
      <trkpt lat="44.21896" lon="4.47741">
        <ele>82.5</ele>
        <time>2024-08-31T14:13:46Z</time>
      </trkpt>
      <trkpt lat="44.21894" lon="4.4774">
        <ele>82.5</ele>
        <time>2024-08-31T14:13:47Z</time>
      </trkpt>
      <trkpt lat="44.21893" lon="4.47737">
        <ele>82.5</ele>
        <time>2024-08-31T14:13:48Z</time>
      </trkpt>
      <trkpt lat="44.21892" lon="4.47735">
        <ele>82.5</ele>
        <time>2024-08-31T14:13:49Z</time>
      </trkpt>
      <trkpt lat="44.21891" lon="4.47733">
        <ele>82.6</ele>
        <time>2024-08-31T14:13:50Z</time>
      </trkpt>
      <trkpt lat="44.21891" lon="4.47732">
        <ele>82.6</ele>
        <time>2024-08-31T14:13:51Z</time>
      </trkpt>
      <trkpt lat="44.2189" lon="4.4773">
        <ele>82.6</ele>
        <time>2024-08-31T14:13:52Z</time>
      </trkpt>
      <trkpt lat="44.21889" lon="4.47729">
        <ele>82.6</ele>
        <time>2024-08-31T14:13:53Z</time>
      </trkpt>
      <trkpt lat="44.21888" lon="4.47729">
        <ele>82.6</ele>
        <time>2024-08-31T14:13:54Z</time>
      </trkpt>
      <trkpt lat="44.21887" lon="4.4773">
        <ele>82.7</ele>
        <time>2024-08-31T14:13:55Z</time>
      </trkpt>
      <trkpt lat="44.21887" lon="4.47731">
        <ele>82.7</ele>
        <time>2024-08-31T14:13:56Z</time>
      </trkpt>
      <trkpt lat="44.21887" lon="4.47733">
        <ele>82.8</ele>
        <time>2024-08-31T14:13:57Z</time>
      </trkpt>
      <trkpt lat="44.21886" lon="4.47735">
        <ele>82.8</ele>
        <time>2024-08-31T14:13:58Z</time>
      </trkpt>
      <trkpt lat="44.21887" lon="4.47739">
        <ele>82.9</ele>
        <time>2024-08-31T14:13:59Z</time>
      </trkpt>
      <trkpt lat="44.21888" lon="4.4774">
        <ele>82.9</ele>
        <time>2024-08-31T14:14:00Z</time>
      </trkpt>
      <trkpt lat="44.21889" lon="4.47744">
        <ele>83</ele>
        <time>2024-08-31T14:14:01Z</time>
      </trkpt>
      <trkpt lat="44.21889" lon="4.47745">
        <ele>83.1</ele>
        <time>2024-08-31T14:14:02Z</time>
      </trkpt>
      <trkpt lat="44.2189" lon="4.47748">
        <ele>83.1</ele>
        <time>2024-08-31T14:14:03Z</time>
      </trkpt>
      <trkpt lat="44.2189" lon="4.47749">
        <ele>83.3</ele>
        <time>2024-08-31T14:14:04Z</time>
      </trkpt>
      <trkpt lat="44.2189" lon="4.4775">
        <ele>83.3</ele>
        <time>2024-08-31T14:14:05Z</time>
      </trkpt>
      <trkpt lat="44.2189" lon="4.47753">
        <ele>83.3</ele>
        <time>2024-08-31T14:14:06Z</time>
      </trkpt>
      <trkpt lat="44.21891" lon="4.47755">
        <ele>83.5</ele>
        <time>2024-08-31T14:14:07Z</time>
      </trkpt>
      <trkpt lat="44.2189" lon="4.47757">
        <ele>83.8</ele>
        <time>2024-08-31T14:14:08Z</time>
      </trkpt>
      <trkpt lat="44.2189" lon="4.47759">
        <ele>83.8</ele>
        <time>2024-08-31T14:14:09Z</time>
      </trkpt>
      <trkpt lat="44.2189" lon="4.4776">
        <ele>83.8</ele>
        <time>2024-08-31T14:14:10Z</time>
      </trkpt>
      <trkpt lat="44.2189" lon="4.47762">
        <ele>84.1</ele>
        <time>2024-08-31T14:14:11Z</time>
      </trkpt>
      <trkpt lat="44.21889" lon="4.47763">
        <ele>84</ele>
        <time>2024-08-31T14:14:12Z</time>
      </trkpt>
      <trkpt lat="44.21889" lon="4.47764">
        <ele>84</ele>
        <time>2024-08-31T14:14:13Z</time>
      </trkpt>
      <trkpt lat="44.21888" lon="4.47764">
        <ele>84</ele>
        <time>2024-08-31T14:14:14Z</time>
      </trkpt>
      <trkpt lat="44.21887" lon="4.47763">
        <ele>83.7</ele>
        <time>2024-08-31T14:14:15Z</time>
      </trkpt>
      <trkpt lat="44.21886" lon="4.47762">
        <ele>83.7</ele>
        <time>2024-08-31T14:14:16Z</time>
      </trkpt>
      <trkpt lat="44.21886" lon="4.47761">
        <ele>83.5</ele>
        <time>2024-08-31T14:14:17Z</time>
      </trkpt>
      <trkpt lat="44.21886" lon="4.4776">
        <ele>83.4</ele>
        <time>2024-08-31T14:14:18Z</time>
      </trkpt>
      <trkpt lat="44.21885" lon="4.47759">
        <ele>83.4</ele>
        <time>2024-08-31T14:14:19Z</time>
      </trkpt>
      <trkpt lat="44.21884" lon="4.47758">
        <ele>83.2</ele>
        <time>2024-08-31T14:14:20Z</time>
      </trkpt>
      <trkpt lat="44.21883" lon="4.47757">
        <ele>83</ele>
        <time>2024-08-31T14:14:21Z</time>
      </trkpt>
      <trkpt lat="44.21882" lon="4.47756">
        <ele>83</ele>
        <time>2024-08-31T14:14:22Z</time>
      </trkpt>
      <trkpt lat="44.21881" lon="4.47756">
        <ele>82.8</ele>
        <time>2024-08-31T14:14:23Z</time>
      </trkpt>
      <trkpt lat="44.2188" lon="4.47756">
        <ele>82.7</ele>
        <time>2024-08-31T14:14:24Z</time>
      </trkpt>
      <trkpt lat="44.21879" lon="4.47756">
        <ele>82.7</ele>
        <time>2024-08-31T14:14:25Z</time>
      </trkpt>
      <trkpt lat="44.21879" lon="4.47755">
        <ele>82.7</ele>
        <time>2024-08-31T14:14:26Z</time>
      </trkpt>
      <trkpt lat="44.21878" lon="4.47755">
        <ele>82.5</ele>
        <time>2024-08-31T14:14:27Z</time>
      </trkpt>
      <trkpt lat="44.21877" lon="4.47757">
        <ele>82.7</ele>
        <time>2024-08-31T14:14:28Z</time>
      </trkpt>
      <trkpt lat="44.21876" lon="4.47758">
        <ele>82.6</ele>
        <time>2024-08-31T14:14:29Z</time>
      </trkpt>
      <trkpt lat="44.21875" lon="4.47759">
        <ele>82.5</ele>
        <time>2024-08-31T14:14:30Z</time>
      </trkpt>
      <trkpt lat="44.21874" lon="4.47761">
        <ele>82.5</ele>
        <time>2024-08-31T14:14:31Z</time>
      </trkpt>
      <trkpt lat="44.21873" lon="4.47762">
        <ele>82.7</ele>
        <time>2024-08-31T14:14:32Z</time>
      </trkpt>
      <trkpt lat="44.21871" lon="4.47763">
        <ele>82.5</ele>
        <time>2024-08-31T14:14:33Z</time>
      </trkpt>
      <trkpt lat="44.21869" lon="4.47762">
        <ele>82.5</ele>
        <time>2024-08-31T14:14:34Z</time>
      </trkpt>
      <trkpt lat="44.21868" lon="4.47761">
        <ele>82.3</ele>
        <time>2024-08-31T14:14:35Z</time>
      </trkpt>
      <trkpt lat="44.21867" lon="4.47759">
        <ele>82.3</ele>
        <time>2024-08-31T14:14:36Z</time>
      </trkpt>
      <trkpt lat="44.21866" lon="4.47758">
        <ele>82.3</ele>
        <time>2024-08-31T14:14:37Z</time>
      </trkpt>
      <trkpt lat="44.21866" lon="4.47758">
        <ele>82.3</ele>
        <time>2024-08-31T14:14:38Z</time>
      </trkpt>
      <trkpt lat="44.21866" lon="4.47759">
        <ele>82.3</ele>
        <time>2024-08-31T14:14:39Z</time>
      </trkpt>
      <trkpt lat="44.21866" lon="4.47761">
        <ele>82.3</ele>
        <time>2024-08-31T14:14:40Z</time>
      </trkpt>
      <trkpt lat="44.21866" lon="4.47762">
        <ele>82.4</ele>
        <time>2024-08-31T14:14:41Z</time>
      </trkpt>
      <trkpt lat="44.21866" lon="4.47764">
        <ele>82.4</ele>
        <time>2024-08-31T14:14:42Z</time>
      </trkpt>
      <trkpt lat="44.21865" lon="4.47764">
        <ele>82.4</ele>
        <time>2024-08-31T14:14:43Z</time>
      </trkpt>
      <trkpt lat="44.21866" lon="4.47764">
        <ele>82.4</ele>
        <time>2024-08-31T14:14:44Z</time>
      </trkpt>
      <trkpt lat="44.21866" lon="4.47765">
        <ele>82.4</ele>
        <time>2024-08-31T14:14:45Z</time>
      </trkpt>
      <trkpt lat="44.21866" lon="4.47765">
        <ele>82.4</ele>
        <time>2024-08-31T14:14:46Z</time>
      </trkpt>
      <trkpt lat="44.21865" lon="4.47766">
        <ele>82.7</ele>
        <time>2024-08-31T14:14:47Z</time>
      </trkpt>
      <trkpt lat="44.21865" lon="4.47767">
        <ele>82.7</ele>
        <time>2024-08-31T14:14:48Z</time>
      </trkpt>
      <trkpt lat="44.21865" lon="4.47767">
        <ele>82.6</ele>
        <time>2024-08-31T14:14:49Z</time>
      </trkpt>
      <trkpt lat="44.21865" lon="4.47769">
        <ele>82.6</ele>
        <time>2024-08-31T14:14:50Z</time>
      </trkpt>
      <trkpt lat="44.21865" lon="4.47769">
        <ele>82.6</ele>
        <time>2024-08-31T14:14:51Z</time>
      </trkpt>
      <trkpt lat="44.21866" lon="4.4777">
        <ele>82.6</ele>
        <time>2024-08-31T14:14:52Z</time>
      </trkpt>
      <trkpt lat="44.21867" lon="4.47771">
        <ele>83</ele>
        <time>2024-08-31T14:14:53Z</time>
      </trkpt>
      <trkpt lat="44.21867" lon="4.47772">
        <ele>83</ele>
        <time>2024-08-31T14:14:54Z</time>
      </trkpt>
      <trkpt lat="44.21868" lon="4.47772">
        <ele>83</ele>
        <time>2024-08-31T14:14:55Z</time>
      </trkpt>
      <trkpt lat="44.2187" lon="4.47773">
        <ele>83.1</ele>
        <time>2024-08-31T14:14:56Z</time>
      </trkpt>
      <trkpt lat="44.21871" lon="4.47774">
        <ele>83.1</ele>
        <time>2024-08-31T14:14:57Z</time>
      </trkpt>
      <trkpt lat="44.21872" lon="4.47776">
        <ele>83.5</ele>
        <time>2024-08-31T14:14:58Z</time>
      </trkpt>
      <trkpt lat="44.21874" lon="4.4778">
        <ele>84.2</ele>
        <time>2024-08-31T14:14:59Z</time>
      </trkpt>
      <trkpt lat="44.21874" lon="4.47781">
        <ele>84.2</ele>
        <time>2024-08-31T14:15:00Z</time>
      </trkpt>
      <trkpt lat="44.21875" lon="4.47783">
        <ele>84.2</ele>
        <time>2024-08-31T14:15:01Z</time>
      </trkpt>
      <trkpt lat="44.21875" lon="4.47785">
        <ele>84.7</ele>
        <time>2024-08-31T14:15:02Z</time>
      </trkpt>
      <trkpt lat="44.21875" lon="4.47786">
        <ele>84.7</ele>
        <time>2024-08-31T14:15:03Z</time>
      </trkpt>
      <trkpt lat="44.21875" lon="4.47788">
        <ele>85</ele>
        <time>2024-08-31T14:15:04Z</time>
      </trkpt>
      <trkpt lat="44.21875" lon="4.47788">
        <ele>85</ele>
        <time>2024-08-31T14:15:05Z</time>
      </trkpt>
      <trkpt lat="44.21873" lon="4.47788">
        <ele>85</ele>
        <time>2024-08-31T14:15:06Z</time>
      </trkpt>
      <trkpt lat="44.21872" lon="4.47787">
        <ele>84.4</ele>
        <time>2024-08-31T14:15:07Z</time>
      </trkpt>
      <trkpt lat="44.21871" lon="4.47787">
        <ele>84.4</ele>
        <time>2024-08-31T14:15:08Z</time>
      </trkpt>
      <trkpt lat="44.21869" lon="4.47788">
        <ele>84.5</ele>
        <time>2024-08-31T14:15:09Z</time>
      </trkpt>
      <trkpt lat="44.21869" lon="4.47789">
        <ele>84.5</ele>
        <time>2024-08-31T14:15:10Z</time>
      </trkpt>
      <trkpt lat="44.21868" lon="4.4779">
        <ele>84.5</ele>
        <time>2024-08-31T14:15:11Z</time>
      </trkpt>
      <trkpt lat="44.21866" lon="4.47791">
        <ele>84.1</ele>
        <time>2024-08-31T14:15:12Z</time>
      </trkpt>
      <trkpt lat="44.21865" lon="4.47792">
        <ele>84.4</ele>
        <time>2024-08-31T14:15:13Z</time>
      </trkpt>
      <trkpt lat="44.21864" lon="4.47792">
        <ele>84.4</ele>
        <time>2024-08-31T14:15:14Z</time>
      </trkpt>
      <trkpt lat="44.21863" lon="4.47793">
        <ele>84.1</ele>
        <time>2024-08-31T14:15:15Z</time>
      </trkpt>
      <trkpt lat="44.21862" lon="4.47794">
        <ele>84.1</ele>
        <time>2024-08-31T14:15:16Z</time>
      </trkpt>
      <trkpt lat="44.2186" lon="4.47795">
        <ele>83.7</ele>
        <time>2024-08-31T14:15:17Z</time>
      </trkpt>
      <trkpt lat="44.21859" lon="4.47796">
        <ele>84.1</ele>
        <time>2024-08-31T14:15:18Z</time>
      </trkpt>
      <trkpt lat="44.21858" lon="4.47797">
        <ele>84.1</ele>
        <time>2024-08-31T14:15:19Z</time>
      </trkpt>
      <trkpt lat="44.21858" lon="4.47798">
        <ele>84</ele>
        <time>2024-08-31T14:15:20Z</time>
      </trkpt>
      <trkpt lat="44.21857" lon="4.478">
        <ele>84.1</ele>
        <time>2024-08-31T14:15:21Z</time>
      </trkpt>
      <trkpt lat="44.21857" lon="4.47802">
        <ele>84.4</ele>
        <time>2024-08-31T14:15:22Z</time>
      </trkpt>
      <trkpt lat="44.21858" lon="4.47805">
        <ele>84.7</ele>
        <time>2024-08-31T14:15:23Z</time>
      </trkpt>
      <trkpt lat="44.21858" lon="4.47807">
        <ele>84.7</ele>
        <time>2024-08-31T14:15:24Z</time>
      </trkpt>
      <trkpt lat="44.21858" lon="4.4781">
        <ele>85</ele>
        <time>2024-08-31T14:15:25Z</time>
      </trkpt>
      <trkpt lat="44.21856" lon="4.47813">
        <ele>84.9</ele>
        <time>2024-08-31T14:15:26Z</time>
      </trkpt>
      <trkpt lat="44.21855" lon="4.47814">
        <ele>85.2</ele>
        <time>2024-08-31T14:15:27Z</time>
      </trkpt>
      <trkpt lat="44.21852" lon="4.47815">
        <ele>85.1</ele>
        <time>2024-08-31T14:15:28Z</time>
      </trkpt>
      <trkpt lat="44.21851" lon="4.47814">
        <ele>85.1</ele>
        <time>2024-08-31T14:15:29Z</time>
      </trkpt>
      <trkpt lat="44.21849" lon="4.47814">
        <ele>84.9</ele>
        <time>2024-08-31T14:15:30Z</time>
      </trkpt>
      <trkpt lat="44.21849" lon="4.47813">
        <ele>84.5</ele>
        <time>2024-08-31T14:15:31Z</time>
      </trkpt>
      <trkpt lat="44.21848" lon="4.47812">
        <ele>84.5</ele>
        <time>2024-08-31T14:15:32Z</time>
      </trkpt>
      <trkpt lat="44.21847" lon="4.4781">
        <ele>84.3</ele>
        <time>2024-08-31T14:15:33Z</time>
      </trkpt>
      <trkpt lat="44.21846" lon="4.47809">
        <ele>84.3</ele>
        <time>2024-08-31T14:15:34Z</time>
      </trkpt>
      <trkpt lat="44.21845" lon="4.47808">
        <ele>83.8</ele>
        <time>2024-08-31T14:15:35Z</time>
      </trkpt>
      <trkpt lat="44.21844" lon="4.47808">
        <ele>83.6</ele>
        <time>2024-08-31T14:15:36Z</time>
      </trkpt>
      <trkpt lat="44.21843" lon="4.47807">
        <ele>83.6</ele>
        <time>2024-08-31T14:15:37Z</time>
      </trkpt>
      <trkpt lat="44.21842" lon="4.47806">
        <ele>83.6</ele>
        <time>2024-08-31T14:15:38Z</time>
      </trkpt>
      <trkpt lat="44.21841" lon="4.47806">
        <ele>83.3</ele>
        <time>2024-08-31T14:15:39Z</time>
      </trkpt>
      <trkpt lat="44.21839" lon="4.47806">
        <ele>83.3</ele>
        <time>2024-08-31T14:15:40Z</time>
      </trkpt>
      <trkpt lat="44.21838" lon="4.47807">
        <ele>83.1</ele>
        <time>2024-08-31T14:15:41Z</time>
      </trkpt>
      <trkpt lat="44.21837" lon="4.47809">
        <ele>83.1</ele>
        <time>2024-08-31T14:15:42Z</time>
      </trkpt>
      <trkpt lat="44.21836" lon="4.4781">
        <ele>83.5</ele>
        <time>2024-08-31T14:15:43Z</time>
      </trkpt>
      <trkpt lat="44.21836" lon="4.47811">
        <ele>83.5</ele>
        <time>2024-08-31T14:15:44Z</time>
      </trkpt>
      <trkpt lat="44.21836" lon="4.47811">
        <ele>83.5</ele>
        <time>2024-08-31T14:15:45Z</time>
      </trkpt>
      <trkpt lat="44.21836" lon="4.47811">
        <ele>83.5</ele>
        <time>2024-08-31T14:15:46Z</time>
      </trkpt>
      <trkpt lat="44.21836" lon="4.47811">
        <ele>83.5</ele>
        <time>2024-08-31T14:15:47Z</time>
      </trkpt>
      <trkpt lat="44.21836" lon="4.47811">
        <ele>83.4</ele>
        <time>2024-08-31T14:15:48Z</time>
      </trkpt>
      <trkpt lat="44.21836" lon="4.47811">
        <ele>83.4</ele>
        <time>2024-08-31T14:15:49Z</time>
      </trkpt>
      <trkpt lat="44.21836" lon="4.47812">
        <ele>83.4</ele>
        <time>2024-08-31T14:15:50Z</time>
      </trkpt>
      <trkpt lat="44.21835" lon="4.47812">
        <ele>83.2</ele>
        <time>2024-08-31T14:15:51Z</time>
      </trkpt>
      <trkpt lat="44.21834" lon="4.47813">
        <ele>83.2</ele>
        <time>2024-08-31T14:15:52Z</time>
      </trkpt>
      <trkpt lat="44.21834" lon="4.47814">
        <ele>83.4</ele>
        <time>2024-08-31T14:15:53Z</time>
      </trkpt>
      <trkpt lat="44.21833" lon="4.47815">
        <ele>83.4</ele>
        <time>2024-08-31T14:15:54Z</time>
      </trkpt>
      <trkpt lat="44.21834" lon="4.47814">
        <ele>83.4</ele>
        <time>2024-08-31T14:15:55Z</time>
      </trkpt>
      <trkpt lat="44.21834" lon="4.47814">
        <ele>83.4</ele>
        <time>2024-08-31T14:15:56Z</time>
      </trkpt>
      <trkpt lat="44.21833" lon="4.47814">
        <ele>83.4</ele>
        <time>2024-08-31T14:15:57Z</time>
      </trkpt>
      <trkpt lat="44.21833" lon="4.47814">
        <ele>83.4</ele>
        <time>2024-08-31T14:15:58Z</time>
      </trkpt>
      <trkpt lat="44.21833" lon="4.47814">
        <ele>83.4</ele>
        <time>2024-08-31T14:15:59Z</time>
      </trkpt>
      <trkpt lat="44.21833" lon="4.47814">
        <ele>83.4</ele>
        <time>2024-08-31T14:16:00Z</time>
      </trkpt>
      <trkpt lat="44.21833" lon="4.47814">
        <ele>83.4</ele>
        <time>2024-08-31T14:16:01Z</time>
      </trkpt>
      <trkpt lat="44.21833" lon="4.47814">
        <ele>83.4</ele>
        <time>2024-08-31T14:16:02Z</time>
      </trkpt>
      <trkpt lat="44.21833" lon="4.47814">
        <ele>83.4</ele>
        <time>2024-08-31T14:16:03Z</time>
      </trkpt>
      <trkpt lat="44.21832" lon="4.47814">
        <ele>83.1</ele>
        <time>2024-08-31T14:16:04Z</time>
      </trkpt>
      <trkpt lat="44.21832" lon="4.47814">
        <ele>83.1</ele>
        <time>2024-08-31T14:16:05Z</time>
      </trkpt>
      <trkpt lat="44.21831" lon="4.47814">
        <ele>83.1</ele>
        <time>2024-08-31T14:16:06Z</time>
      </trkpt>
      <trkpt lat="44.21831" lon="4.47815">
        <ele>83.1</ele>
        <time>2024-08-31T14:16:07Z</time>
      </trkpt>
      <trkpt lat="44.2183" lon="4.47815">
        <ele>83</ele>
        <time>2024-08-31T14:16:08Z</time>
      </trkpt>
      <trkpt lat="44.21829" lon="4.47815">
        <ele>82.7</ele>
        <time>2024-08-31T14:16:09Z</time>
      </trkpt>
      <trkpt lat="44.21827" lon="4.47816">
        <ele>82.7</ele>
        <time>2024-08-31T14:16:10Z</time>
      </trkpt>
      <trkpt lat="44.21823" lon="4.47817">
        <ele>82.5</ele>
        <time>2024-08-31T14:16:11Z</time>
      </trkpt>
      <trkpt lat="44.21822" lon="4.47818">
        <ele>82.4</ele>
        <time>2024-08-31T14:16:12Z</time>
      </trkpt>
      <trkpt lat="44.21818" lon="4.47819">
        <ele>82.2</ele>
        <time>2024-08-31T14:16:13Z</time>
      </trkpt>
      <trkpt lat="44.21815" lon="4.47822">
        <ele>82.3</ele>
        <time>2024-08-31T14:16:14Z</time>
      </trkpt>
      <trkpt lat="44.2181" lon="4.47826">
        <ele>82.4</ele>
        <time>2024-08-31T14:16:15Z</time>
      </trkpt>
      <trkpt lat="44.21805" lon="4.4783">
        <ele>82.3</ele>
        <time>2024-08-31T14:16:16Z</time>
      </trkpt>
      <trkpt lat="44.21801" lon="4.47834">
        <ele>82.3</ele>
        <time>2024-08-31T14:16:17Z</time>
      </trkpt>
      <trkpt lat="44.21799" lon="4.47837">
        <ele>82.2</ele>
        <time>2024-08-31T14:16:18Z</time>
      </trkpt>
      <trkpt lat="44.21796" lon="4.4784">
        <ele>82.3</ele>
        <time>2024-08-31T14:16:19Z</time>
      </trkpt>
      <trkpt lat="44.21793" lon="4.47842">
        <ele>82.1</ele>
        <time>2024-08-31T14:16:20Z</time>
      </trkpt>
      <trkpt lat="44.21792" lon="4.47843">
        <ele>82.1</ele>
        <time>2024-08-31T14:16:21Z</time>
      </trkpt>
      <trkpt lat="44.21792" lon="4.47843">
        <ele>82</ele>
        <time>2024-08-31T14:16:22Z</time>
      </trkpt>
      <trkpt lat="44.21792" lon="4.47844">
        <ele>82</ele>
        <time>2024-08-31T14:16:23Z</time>
      </trkpt>
      <trkpt lat="44.21793" lon="4.47844">
        <ele>82.2</ele>
        <time>2024-08-31T14:16:24Z</time>
      </trkpt>
      <trkpt lat="44.21793" lon="4.47845">
        <ele>82.2</ele>
        <time>2024-08-31T14:16:25Z</time>
      </trkpt>
      <trkpt lat="44.21793" lon="4.47846">
        <ele>82.2</ele>
        <time>2024-08-31T14:16:26Z</time>
      </trkpt>
      <trkpt lat="44.21793" lon="4.47847">
        <ele>82.2</ele>
        <time>2024-08-31T14:16:27Z</time>
      </trkpt>
      <trkpt lat="44.21793" lon="4.47848">
        <ele>82.4</ele>
        <time>2024-08-31T14:16:28Z</time>
      </trkpt>
      <trkpt lat="44.21793" lon="4.4785">
        <ele>82.4</ele>
        <time>2024-08-31T14:16:29Z</time>
      </trkpt>
      <trkpt lat="44.21792" lon="4.47851">
        <ele>82.4</ele>
        <time>2024-08-31T14:16:30Z</time>
      </trkpt>
      <trkpt lat="44.21792" lon="4.47852">
        <ele>82.5</ele>
        <time>2024-08-31T14:16:31Z</time>
      </trkpt>
      <trkpt lat="44.21792" lon="4.47853">
        <ele>82.7</ele>
        <time>2024-08-31T14:16:32Z</time>
      </trkpt>
      <trkpt lat="44.21792" lon="4.47853">
        <ele>82.5</ele>
        <time>2024-08-31T14:16:33Z</time>
      </trkpt>
      <trkpt lat="44.21792" lon="4.47853">
        <ele>82.5</ele>
        <time>2024-08-31T14:16:34Z</time>
      </trkpt>
      <trkpt lat="44.21791" lon="4.47853">
        <ele>82.5</ele>
        <time>2024-08-31T14:16:35Z</time>
      </trkpt>
      <trkpt lat="44.21791" lon="4.47853">
        <ele>82.5</ele>
        <time>2024-08-31T14:16:36Z</time>
      </trkpt>
      <trkpt lat="44.21791" lon="4.47853">
        <ele>82.5</ele>
        <time>2024-08-31T14:16:37Z</time>
      </trkpt>
      <trkpt lat="44.21791" lon="4.47853">
        <ele>82.5</ele>
        <time>2024-08-31T14:16:38Z</time>
      </trkpt>
      <trkpt lat="44.21791" lon="4.47853">
        <ele>82.5</ele>
        <time>2024-08-31T14:16:39Z</time>
      </trkpt>
      <trkpt lat="44.21791" lon="4.47853">
        <ele>82.5</ele>
        <time>2024-08-31T14:16:40Z</time>
      </trkpt>
      <trkpt lat="44.21791" lon="4.47853">
        <ele>82.5</ele>
        <time>2024-08-31T14:16:41Z</time>
      </trkpt>
      <trkpt lat="44.21791" lon="4.47853">
        <ele>82.5</ele>
        <time>2024-08-31T14:16:42Z</time>
      </trkpt>
      <trkpt lat="44.2179" lon="4.47854">
        <ele>82.5</ele>
        <time>2024-08-31T14:16:44Z</time>
      </trkpt>
      <trkpt lat="44.2179" lon="4.47856">
        <ele>82.5</ele>
        <time>2024-08-31T14:16:45Z</time>
      </trkpt>
      <trkpt lat="44.21789" lon="4.47857">
        <ele>82.9</ele>
        <time>2024-08-31T14:16:46Z</time>
      </trkpt>
      <trkpt lat="44.21789" lon="4.47857">
        <ele>82.7</ele>
        <time>2024-08-31T14:16:47Z</time>
      </trkpt>
      <trkpt lat="44.21789" lon="4.47858">
        <ele>82.7</ele>
        <time>2024-08-31T14:16:48Z</time>
      </trkpt>
      <trkpt lat="44.21789" lon="4.47859">
        <ele>82.6</ele>
        <time>2024-08-31T14:16:49Z</time>
      </trkpt>
      <trkpt lat="44.21789" lon="4.4786">
        <ele>82.8</ele>
        <time>2024-08-31T14:16:50Z</time>
      </trkpt>
      <trkpt lat="44.21789" lon="4.4786">
        <ele>82.8</ele>
        <time>2024-08-31T14:16:51Z</time>
      </trkpt>
      <trkpt lat="44.2179" lon="4.4786">
        <ele>82.8</ele>
        <time>2024-08-31T14:16:52Z</time>
      </trkpt>
      <trkpt lat="44.2179" lon="4.4786">
        <ele>82.8</ele>
        <time>2024-08-31T14:16:53Z</time>
      </trkpt>
      <trkpt lat="44.2179" lon="4.4786">
        <ele>82.8</ele>
        <time>2024-08-31T14:16:54Z</time>
      </trkpt>
      <trkpt lat="44.2179" lon="4.4786">
        <ele>82.8</ele>
        <time>2024-08-31T14:16:55Z</time>
      </trkpt>
      <trkpt lat="44.2179" lon="4.47859">
        <ele>82.8</ele>
        <time>2024-08-31T14:16:56Z</time>
      </trkpt>
      <trkpt lat="44.2179" lon="4.47859">
        <ele>82.8</ele>
        <time>2024-08-31T14:16:57Z</time>
      </trkpt>
      <trkpt lat="44.21789" lon="4.47859">
        <ele>82.6</ele>
        <time>2024-08-31T14:16:58Z</time>
      </trkpt>
      <trkpt lat="44.21788" lon="4.47859">
        <ele>82.6</ele>
        <time>2024-08-31T14:16:59Z</time>
      </trkpt>
      <trkpt lat="44.21788" lon="4.47859">
        <ele>82.6</ele>
        <time>2024-08-31T14:17:00Z</time>
      </trkpt>
      <trkpt lat="44.21788" lon="4.4786">
        <ele>83</ele>
        <time>2024-08-31T14:17:01Z</time>
      </trkpt>
      <trkpt lat="44.21787" lon="4.47862">
        <ele>83</ele>
        <time>2024-08-31T14:17:02Z</time>
      </trkpt>
      <trkpt lat="44.21787" lon="4.47863">
        <ele>83</ele>
        <time>2024-08-31T14:17:03Z</time>
      </trkpt>
      <trkpt lat="44.21787" lon="4.47865">
        <ele>83.5</ele>
        <time>2024-08-31T14:17:04Z</time>
      </trkpt>
      <trkpt lat="44.21786" lon="4.47866">
        <ele>83.5</ele>
        <time>2024-08-31T14:17:05Z</time>
      </trkpt>
      <trkpt lat="44.21786" lon="4.47866">
        <ele>83.4</ele>
        <time>2024-08-31T14:17:06Z</time>
      </trkpt>
      <trkpt lat="44.21787" lon="4.47868">
        <ele>83.4</ele>
        <time>2024-08-31T14:17:07Z</time>
      </trkpt>
      <trkpt lat="44.21787" lon="4.47869">
        <ele>83.9</ele>
        <time>2024-08-31T14:17:08Z</time>
      </trkpt>
      <trkpt lat="44.21787" lon="4.4787">
        <ele>83.9</ele>
        <time>2024-08-31T14:17:09Z</time>
      </trkpt>
      <trkpt lat="44.21788" lon="4.47872">
        <ele>83.9</ele>
        <time>2024-08-31T14:17:10Z</time>
      </trkpt>
      <trkpt lat="44.21787" lon="4.47873">
        <ele>83.9</ele>
        <time>2024-08-31T14:17:11Z</time>
      </trkpt>
      <trkpt lat="44.21787" lon="4.47875">
        <ele>84.2</ele>
        <time>2024-08-31T14:17:12Z</time>
      </trkpt>
      <trkpt lat="44.21787" lon="4.47877">
        <ele>84.2</ele>
        <time>2024-08-31T14:17:13Z</time>
      </trkpt>
      <trkpt lat="44.21786" lon="4.47879">
        <ele>84.3</ele>
        <time>2024-08-31T14:17:14Z</time>
      </trkpt>
      <trkpt lat="44.21784" lon="4.47882">
        <ele>84.5</ele>
        <time>2024-08-31T14:17:15Z</time>
      </trkpt>
      <trkpt lat="44.21783" lon="4.47883">
        <ele>84.3</ele>
        <time>2024-08-31T14:17:16Z</time>
      </trkpt>
      <trkpt lat="44.21782" lon="4.47885">
        <ele>84.3</ele>
        <time>2024-08-31T14:17:17Z</time>
      </trkpt>
      <trkpt lat="44.21781" lon="4.47887">
        <ele>84.6</ele>
        <time>2024-08-31T14:17:18Z</time>
      </trkpt>
      <trkpt lat="44.21781" lon="4.47889">
        <ele>84.6</ele>
        <time>2024-08-31T14:17:19Z</time>
      </trkpt>
      <trkpt lat="44.2178" lon="4.4789">
        <ele>84.3</ele>
        <time>2024-08-31T14:17:20Z</time>
      </trkpt>
      <trkpt lat="44.21779" lon="4.47891">
        <ele>84.7</ele>
        <time>2024-08-31T14:17:21Z</time>
      </trkpt>
      <trkpt lat="44.21779" lon="4.47892">
        <ele>84.7</ele>
        <time>2024-08-31T14:17:22Z</time>
      </trkpt>
      <trkpt lat="44.21779" lon="4.47893">
        <ele>84.7</ele>
        <time>2024-08-31T14:17:23Z</time>
      </trkpt>
      <trkpt lat="44.21779" lon="4.47893">
        <ele>84.6</ele>
        <time>2024-08-31T14:17:24Z</time>
      </trkpt>
      <trkpt lat="44.21779" lon="4.47892">
        <ele>84.6</ele>
        <time>2024-08-31T14:17:25Z</time>
      </trkpt>
      <trkpt lat="44.21779" lon="4.47892">
        <ele>84.6</ele>
        <time>2024-08-31T14:17:26Z</time>
      </trkpt>
      <trkpt lat="44.21779" lon="4.47892">
        <ele>84.6</ele>
        <time>2024-08-31T14:17:27Z</time>
      </trkpt>
      <trkpt lat="44.21778" lon="4.47892">
        <ele>84.6</ele>
        <time>2024-08-31T14:17:28Z</time>
      </trkpt>
      <trkpt lat="44.21777" lon="4.47892">
        <ele>84.6</ele>
        <time>2024-08-31T14:17:29Z</time>
      </trkpt>
      <trkpt lat="44.21776" lon="4.47893">
        <ele>84.4</ele>
        <time>2024-08-31T14:17:30Z</time>
      </trkpt>
      <trkpt lat="44.21775" lon="4.47894">
        <ele>84.4</ele>
        <time>2024-08-31T14:17:31Z</time>
      </trkpt>
      <trkpt lat="44.21775" lon="4.47894">
        <ele>84.4</ele>
        <time>2024-08-31T14:17:32Z</time>
      </trkpt>
      <trkpt lat="44.21775" lon="4.47895">
        <ele>84.8</ele>
        <time>2024-08-31T14:17:33Z</time>
      </trkpt>
      <trkpt lat="44.21776" lon="4.47896">
        <ele>84.8</ele>
        <time>2024-08-31T14:17:34Z</time>
      </trkpt>
      <trkpt lat="44.21776" lon="4.47897">
        <ele>84.8</ele>
        <time>2024-08-31T14:17:35Z</time>
      </trkpt>
      <trkpt lat="44.21776" lon="4.47898">
        <ele>84.8</ele>
        <time>2024-08-31T14:17:36Z</time>
      </trkpt>
      <trkpt lat="44.21777" lon="4.47899">
        <ele>85</ele>
        <time>2024-08-31T14:17:37Z</time>
      </trkpt>
      <trkpt lat="44.21777" lon="4.479">
        <ele>85</ele>
        <time>2024-08-31T14:17:38Z</time>
      </trkpt>
      <trkpt lat="44.21777" lon="4.47901">
        <ele>85.1</ele>
        <time>2024-08-31T14:17:39Z</time>
      </trkpt>
      <trkpt lat="44.21778" lon="4.47902">
        <ele>85.1</ele>
        <time>2024-08-31T14:17:40Z</time>
      </trkpt>
      <trkpt lat="44.21778" lon="4.47903">
        <ele>85.2</ele>
        <time>2024-08-31T14:17:41Z</time>
      </trkpt>
      <trkpt lat="44.21779" lon="4.47904">
        <ele>85.2</ele>
        <time>2024-08-31T14:17:42Z</time>
      </trkpt>
      <trkpt lat="44.21779" lon="4.47905">
        <ele>85.2</ele>
        <time>2024-08-31T14:17:43Z</time>
      </trkpt>
      <trkpt lat="44.21779" lon="4.47906">
        <ele>85.2</ele>
        <time>2024-08-31T14:17:44Z</time>
      </trkpt>
      <trkpt lat="44.21779" lon="4.47907">
        <ele>85.2</ele>
        <time>2024-08-31T14:17:45Z</time>
      </trkpt>
      <trkpt lat="44.21779" lon="4.47907">
        <ele>85.2</ele>
        <time>2024-08-31T14:17:46Z</time>
      </trkpt>
      <trkpt lat="44.2178" lon="4.47914">
        <ele>85.2</ele>
        <time>2024-08-31T14:24:13Z</time>
      </trkpt>
      <trkpt lat="44.21779" lon="4.47912">
        <ele>85.3</ele>
        <time>2024-08-31T14:24:14Z</time>
      </trkpt>
      <trkpt lat="44.21779" lon="4.47912">
        <ele>85.2</ele>
        <time>2024-08-31T14:24:15Z</time>
      </trkpt>
      <trkpt lat="44.21779" lon="4.47911">
        <ele>85.2</ele>
        <time>2024-08-31T14:24:16Z</time>
      </trkpt>
      <trkpt lat="44.21778" lon="4.4791">
        <ele>85.2</ele>
        <time>2024-08-31T14:24:17Z</time>
      </trkpt>
      <trkpt lat="44.21777" lon="4.47907">
        <ele>85.1</ele>
        <time>2024-08-31T14:24:18Z</time>
      </trkpt>
      <trkpt lat="44.21776" lon="4.47905">
        <ele>85.1</ele>
        <time>2024-08-31T14:24:19Z</time>
      </trkpt>
      <trkpt lat="44.21774" lon="4.47902">
        <ele>84.8</ele>
        <time>2024-08-31T14:24:20Z</time>
      </trkpt>
      <trkpt lat="44.21773" lon="4.47901">
        <ele>84.8</ele>
        <time>2024-08-31T14:24:21Z</time>
      </trkpt>
      <trkpt lat="44.21772" lon="4.479">
        <ele>84.8</ele>
        <time>2024-08-31T14:24:22Z</time>
      </trkpt>
      <trkpt lat="44.21771" lon="4.47899">
        <ele>84.7</ele>
        <time>2024-08-31T14:24:23Z</time>
      </trkpt>
      <trkpt lat="44.2177" lon="4.47901">
        <ele>84.6</ele>
        <time>2024-08-31T14:24:24Z</time>
      </trkpt>
      <trkpt lat="44.21769" lon="4.47902">
        <ele>84.6</ele>
        <time>2024-08-31T14:24:25Z</time>
      </trkpt>
      <trkpt lat="44.21768" lon="4.47903">
        <ele>84.6</ele>
        <time>2024-08-31T14:24:26Z</time>
      </trkpt>
      <trkpt lat="44.21767" lon="4.47904">
        <ele>84.8</ele>
        <time>2024-08-31T14:24:27Z</time>
      </trkpt>
      <trkpt lat="44.21766" lon="4.47905">
        <ele>84.8</ele>
        <time>2024-08-31T14:24:28Z</time>
      </trkpt>
      <trkpt lat="44.21765" lon="4.47906">
        <ele>84.7</ele>
        <time>2024-08-31T14:24:29Z</time>
      </trkpt>
      <trkpt lat="44.21764" lon="4.47907">
        <ele>84.5</ele>
        <time>2024-08-31T14:24:30Z</time>
      </trkpt>
      <trkpt lat="44.21764" lon="4.47907">
        <ele>84.5</ele>
        <time>2024-08-31T14:24:31Z</time>
      </trkpt>
      <trkpt lat="44.21764" lon="4.47907">
        <ele>84.5</ele>
        <time>2024-08-31T14:24:32Z</time>
      </trkpt>
      <trkpt lat="44.21764" lon="4.47908">
        <ele>84.8</ele>
        <time>2024-08-31T14:24:33Z</time>
      </trkpt>
      <trkpt lat="44.21764" lon="4.47908">
        <ele>84.8</ele>
        <time>2024-08-31T14:24:34Z</time>
      </trkpt>
      <trkpt lat="44.21765" lon="4.47908">
        <ele>84.8</ele>
        <time>2024-08-31T14:24:35Z</time>
      </trkpt>
      <trkpt lat="44.21764" lon="4.47908">
        <ele>84.8</ele>
        <time>2024-08-31T14:24:36Z</time>
      </trkpt>
      <trkpt lat="44.21764" lon="4.47908">
        <ele>84.7</ele>
        <time>2024-08-31T14:24:37Z</time>
      </trkpt>
      <trkpt lat="44.21761" lon="4.4791">
        <ele>84.5</ele>
        <time>2024-08-31T14:24:38Z</time>
      </trkpt>
      <trkpt lat="44.21761" lon="4.47911">
        <ele>84.5</ele>
        <time>2024-08-31T14:24:39Z</time>
      </trkpt>
      <trkpt lat="44.21759" lon="4.47912">
        <ele>84.7</ele>
        <time>2024-08-31T14:24:40Z</time>
      </trkpt>
      <trkpt lat="44.21758" lon="4.47913">
        <ele>84.4</ele>
        <time>2024-08-31T14:24:41Z</time>
      </trkpt>
      <trkpt lat="44.21758" lon="4.47914">
        <ele>84.4</ele>
        <time>2024-08-31T14:24:42Z</time>
      </trkpt>
      <trkpt lat="44.21757" lon="4.47914">
        <ele>84.4</ele>
        <time>2024-08-31T14:24:43Z</time>
      </trkpt>
      <trkpt lat="44.21757" lon="4.47914">
        <ele>84.4</ele>
        <time>2024-08-31T14:24:44Z</time>
      </trkpt>
      <trkpt lat="44.21757" lon="4.47915">
        <ele>84.4</ele>
        <time>2024-08-31T14:24:45Z</time>
      </trkpt>
      <trkpt lat="44.21757" lon="4.47915">
        <ele>84.4</ele>
        <time>2024-08-31T14:24:46Z</time>
      </trkpt>
      <trkpt lat="44.21757" lon="4.47915">
        <ele>84.4</ele>
        <time>2024-08-31T14:24:47Z</time>
      </trkpt>
      <trkpt lat="44.21756" lon="4.47916">
        <ele>84.4</ele>
        <time>2024-08-31T14:24:48Z</time>
      </trkpt>
      <trkpt lat="44.21756" lon="4.47916">
        <ele>84.4</ele>
        <time>2024-08-31T14:24:49Z</time>
      </trkpt>
      <trkpt lat="44.21756" lon="4.47916">
        <ele>84.5</ele>
        <time>2024-08-31T14:24:50Z</time>
      </trkpt>
      <trkpt lat="44.21756" lon="4.47917">
        <ele>84.5</ele>
        <time>2024-08-31T14:24:51Z</time>
      </trkpt>
      <trkpt lat="44.21755" lon="4.47917">
        <ele>84.3</ele>
        <time>2024-08-31T14:24:52Z</time>
      </trkpt>
      <trkpt lat="44.21755" lon="4.47917">
        <ele>84.3</ele>
        <time>2024-08-31T14:24:53Z</time>
      </trkpt>
      <trkpt lat="44.21755" lon="4.47917">
        <ele>84.3</ele>
        <time>2024-08-31T14:24:54Z</time>
      </trkpt>
      <trkpt lat="44.21753" lon="4.47922">
        <ele>84.4</ele>
        <time>2024-08-31T14:24:55Z</time>
      </trkpt>
      <trkpt lat="44.21752" lon="4.47923">
        <ele>84.2</ele>
        <time>2024-08-31T14:24:56Z</time>
      </trkpt>
      <trkpt lat="44.2175" lon="4.47927">
        <ele>84.4</ele>
        <time>2024-08-31T14:24:57Z</time>
      </trkpt>
      <trkpt lat="44.21749" lon="4.47929">
        <ele>84.2</ele>
        <time>2024-08-31T14:24:58Z</time>
      </trkpt>
      <trkpt lat="44.21746" lon="4.47932">
        <ele>84.4</ele>
        <time>2024-08-31T14:24:59Z</time>
      </trkpt>
      <trkpt lat="44.21745" lon="4.47933">
        <ele>84.3</ele>
        <time>2024-08-31T14:25:00Z</time>
      </trkpt>
      <trkpt lat="44.21742" lon="4.47936">
        <ele>84.4</ele>
        <time>2024-08-31T14:25:01Z</time>
      </trkpt>
      <trkpt lat="44.21741" lon="4.47937">
        <ele>84.4</ele>
        <time>2024-08-31T14:25:02Z</time>
      </trkpt>
      <trkpt lat="44.21738" lon="4.47938">
        <ele>84.4</ele>
        <time>2024-08-31T14:25:03Z</time>
      </trkpt>
      <trkpt lat="44.21736" lon="4.4794">
        <ele>84.4</ele>
        <time>2024-08-31T14:25:04Z</time>
      </trkpt>
      <trkpt lat="44.21732" lon="4.47942">
        <ele>84.3</ele>
        <time>2024-08-31T14:25:05Z</time>
      </trkpt>
      <trkpt lat="44.21731" lon="4.47943">
        <ele>84.3</ele>
        <time>2024-08-31T14:25:06Z</time>
      </trkpt>
      <trkpt lat="44.21728" lon="4.47945">
        <ele>84.2</ele>
        <time>2024-08-31T14:25:07Z</time>
      </trkpt>
      <trkpt lat="44.21725" lon="4.47946">
        <ele>84.1</ele>
        <time>2024-08-31T14:25:08Z</time>
      </trkpt>
      <trkpt lat="44.21723" lon="4.47948">
        <ele>84</ele>
        <time>2024-08-31T14:25:09Z</time>
      </trkpt>
      <trkpt lat="44.2172" lon="4.4795">
        <ele>83.9</ele>
        <time>2024-08-31T14:25:10Z</time>
      </trkpt>
      <trkpt lat="44.21717" lon="4.47952">
        <ele>83.7</ele>
        <time>2024-08-31T14:25:11Z</time>
      </trkpt>
      <trkpt lat="44.21714" lon="4.47953">
        <ele>83.6</ele>
        <time>2024-08-31T14:25:12Z</time>
      </trkpt>
      <trkpt lat="44.21713" lon="4.47954">
        <ele>83.6</ele>
        <time>2024-08-31T14:25:13Z</time>
      </trkpt>
      <trkpt lat="44.21711" lon="4.47956">
        <ele>83.4</ele>
        <time>2024-08-31T14:25:14Z</time>
      </trkpt>
      <trkpt lat="44.21711" lon="4.47958">
        <ele>83.4</ele>
        <time>2024-08-31T14:25:15Z</time>
      </trkpt>
      <trkpt lat="44.21713" lon="4.47961">
        <ele>83.4</ele>
        <time>2024-08-31T14:25:16Z</time>
      </trkpt>
      <trkpt lat="44.21714" lon="4.47962">
        <ele>83.4</ele>
        <time>2024-08-31T14:25:17Z</time>
      </trkpt>
      <trkpt lat="44.21716" lon="4.47965">
        <ele>83.3</ele>
        <time>2024-08-31T14:25:18Z</time>
      </trkpt>
      <trkpt lat="44.21719" lon="4.47968">
        <ele>83.3</ele>
        <time>2024-08-31T14:25:19Z</time>
      </trkpt>
      <trkpt lat="44.2172" lon="4.47969">
        <ele>83.3</ele>
        <time>2024-08-31T14:25:20Z</time>
      </trkpt>
      <trkpt lat="44.21722" lon="4.47972">
        <ele>83.4</ele>
        <time>2024-08-31T14:25:21Z</time>
      </trkpt>
      <trkpt lat="44.21724" lon="4.47975">
        <ele>83.3</ele>
        <time>2024-08-31T14:25:22Z</time>
      </trkpt>
      <trkpt lat="44.21726" lon="4.47977">
        <ele>83.3</ele>
        <time>2024-08-31T14:25:23Z</time>
      </trkpt>
      <trkpt lat="44.21728" lon="4.47981">
        <ele>83.3</ele>
        <time>2024-08-31T14:25:24Z</time>
      </trkpt>
      <trkpt lat="44.21729" lon="4.47983">
        <ele>83.3</ele>
        <time>2024-08-31T14:25:25Z</time>
      </trkpt>
      <trkpt lat="44.21732" lon="4.47986">
        <ele>83.2</ele>
        <time>2024-08-31T14:25:26Z</time>
      </trkpt>
      <trkpt lat="44.21733" lon="4.47987">
        <ele>83.2</ele>
        <time>2024-08-31T14:25:27Z</time>
      </trkpt>
      <trkpt lat="44.21735" lon="4.4799">
        <ele>83.2</ele>
        <time>2024-08-31T14:25:28Z</time>
      </trkpt>
      <trkpt lat="44.21737" lon="4.47994">
        <ele>83.2</ele>
        <time>2024-08-31T14:25:29Z</time>
      </trkpt>
      <trkpt lat="44.21739" lon="4.47997">
        <ele>83.2</ele>
        <time>2024-08-31T14:25:30Z</time>
      </trkpt>
      <trkpt lat="44.21741" lon="4.48">
        <ele>83.2</ele>
        <time>2024-08-31T14:25:31Z</time>
      </trkpt>
      <trkpt lat="44.21743" lon="4.48003">
        <ele>83.1</ele>
        <time>2024-08-31T14:25:32Z</time>
      </trkpt>
      <trkpt lat="44.21745" lon="4.48006">
        <ele>83.2</ele>
        <time>2024-08-31T14:25:33Z</time>
      </trkpt>
      <trkpt lat="44.21747" lon="4.48009">
        <ele>83.2</ele>
        <time>2024-08-31T14:25:34Z</time>
      </trkpt>
      <trkpt lat="44.21748" lon="4.48012">
        <ele>83.2</ele>
        <time>2024-08-31T14:25:35Z</time>
      </trkpt>
      <trkpt lat="44.2175" lon="4.48016">
        <ele>83.2</ele>
        <time>2024-08-31T14:25:36Z</time>
      </trkpt>
      <trkpt lat="44.21752" lon="4.4802">
        <ele>83.3</ele>
        <time>2024-08-31T14:25:37Z</time>
      </trkpt>
      <trkpt lat="44.21753" lon="4.48021">
        <ele>83.3</ele>
        <time>2024-08-31T14:25:38Z</time>
      </trkpt>
      <trkpt lat="44.21756" lon="4.48023">
        <ele>83.4</ele>
        <time>2024-08-31T14:25:39Z</time>
      </trkpt>
      <trkpt lat="44.21758" lon="4.48025">
        <ele>83.4</ele>
        <time>2024-08-31T14:25:40Z</time>
      </trkpt>
      <trkpt lat="44.21761" lon="4.48028">
        <ele>83.5</ele>
        <time>2024-08-31T14:25:41Z</time>
      </trkpt>
      <trkpt lat="44.21763" lon="4.4803">
        <ele>83.6</ele>
        <time>2024-08-31T14:25:42Z</time>
      </trkpt>
      <trkpt lat="44.21766" lon="4.48034">
        <ele>83.7</ele>
        <time>2024-08-31T14:25:43Z</time>
      </trkpt>
      <trkpt lat="44.21768" lon="4.48037">
        <ele>83.8</ele>
        <time>2024-08-31T14:25:44Z</time>
      </trkpt>
      <trkpt lat="44.2177" lon="4.48041">
        <ele>83.9</ele>
        <time>2024-08-31T14:25:45Z</time>
      </trkpt>
      <trkpt lat="44.21772" lon="4.48044">
        <ele>84</ele>
        <time>2024-08-31T14:25:46Z</time>
      </trkpt>
      <trkpt lat="44.21775" lon="4.48047">
        <ele>84.1</ele>
        <time>2024-08-31T14:25:47Z</time>
      </trkpt>
      <trkpt lat="44.21778" lon="4.4805">
        <ele>84.3</ele>
        <time>2024-08-31T14:25:48Z</time>
      </trkpt>
      <trkpt lat="44.2178" lon="4.48054">
        <ele>84.4</ele>
        <time>2024-08-31T14:25:49Z</time>
      </trkpt>
      <trkpt lat="44.21781" lon="4.48057">
        <ele>84.4</ele>
        <time>2024-08-31T14:25:50Z</time>
      </trkpt>
      <trkpt lat="44.21783" lon="4.4806">
        <ele>84.5</ele>
        <time>2024-08-31T14:25:51Z</time>
      </trkpt>
      <trkpt lat="44.21784" lon="4.48064">
        <ele>84.7</ele>
        <time>2024-08-31T14:25:52Z</time>
      </trkpt>
      <trkpt lat="44.21786" lon="4.48068">
        <ele>84.8</ele>
        <time>2024-08-31T14:25:53Z</time>
      </trkpt>
      <trkpt lat="44.21787" lon="4.4807">
        <ele>84.8</ele>
        <time>2024-08-31T14:25:54Z</time>
      </trkpt>
      <trkpt lat="44.21789" lon="4.48073">
        <ele>84.9</ele>
        <time>2024-08-31T14:25:55Z</time>
      </trkpt>
      <trkpt lat="44.21792" lon="4.48076">
        <ele>85.1</ele>
        <time>2024-08-31T14:25:56Z</time>
      </trkpt>
      <trkpt lat="44.21794" lon="4.48079">
        <ele>85.2</ele>
        <time>2024-08-31T14:25:57Z</time>
      </trkpt>
      <trkpt lat="44.21797" lon="4.4808">
        <ele>85.3</ele>
        <time>2024-08-31T14:25:58Z</time>
      </trkpt>
      <trkpt lat="44.218" lon="4.4808">
        <ele>85.4</ele>
        <time>2024-08-31T14:25:59Z</time>
      </trkpt>
      <trkpt lat="44.21802" lon="4.48077">
        <ele>85.4</ele>
        <time>2024-08-31T14:26:00Z</time>
      </trkpt>
      <trkpt lat="44.21804" lon="4.48074">
        <ele>85.3</ele>
        <time>2024-08-31T14:26:01Z</time>
      </trkpt>
      <trkpt lat="44.21807" lon="4.48071">
        <ele>85.3</ele>
        <time>2024-08-31T14:26:02Z</time>
      </trkpt>
      <trkpt lat="44.21809" lon="4.48068">
        <ele>85.3</ele>
        <time>2024-08-31T14:26:03Z</time>
      </trkpt>
      <trkpt lat="44.21812" lon="4.48065">
        <ele>85.2</ele>
        <time>2024-08-31T14:26:04Z</time>
      </trkpt>
      <trkpt lat="44.21815" lon="4.48061">
        <ele>85.2</ele>
        <time>2024-08-31T14:26:05Z</time>
      </trkpt>
      <trkpt lat="44.21818" lon="4.48058">
        <ele>85.2</ele>
        <time>2024-08-31T14:26:06Z</time>
      </trkpt>
      <trkpt lat="44.2182" lon="4.48055">
        <ele>85.2</ele>
        <time>2024-08-31T14:26:07Z</time>
      </trkpt>
      <trkpt lat="44.21823" lon="4.48052">
        <ele>85.1</ele>
        <time>2024-08-31T14:26:08Z</time>
      </trkpt>
      <trkpt lat="44.21825" lon="4.48049">
        <ele>85.1</ele>
        <time>2024-08-31T14:26:09Z</time>
      </trkpt>
      <trkpt lat="44.21828" lon="4.48046">
        <ele>85.1</ele>
        <time>2024-08-31T14:26:10Z</time>
      </trkpt>
      <trkpt lat="44.2183" lon="4.48043">
        <ele>85</ele>
        <time>2024-08-31T14:26:11Z</time>
      </trkpt>
      <trkpt lat="44.21832" lon="4.48039">
        <ele>84.9</ele>
        <time>2024-08-31T14:26:12Z</time>
      </trkpt>
      <trkpt lat="44.21832" lon="4.48037">
        <ele>84.9</ele>
        <time>2024-08-31T14:26:13Z</time>
      </trkpt>
      <trkpt lat="44.21831" lon="4.48034">
        <ele>84.9</ele>
        <time>2024-08-31T14:26:14Z</time>
      </trkpt>
      <trkpt lat="44.21829" lon="4.4803">
        <ele>84.7</ele>
        <time>2024-08-31T14:26:15Z</time>
      </trkpt>
      <trkpt lat="44.21827" lon="4.48027">
        <ele>84.7</ele>
        <time>2024-08-31T14:26:16Z</time>
      </trkpt>
      <trkpt lat="44.21824" lon="4.48024">
        <ele>84.6</ele>
        <time>2024-08-31T14:26:17Z</time>
      </trkpt>
      <trkpt lat="44.21822" lon="4.48021">
        <ele>84.5</ele>
        <time>2024-08-31T14:26:18Z</time>
      </trkpt>
      <trkpt lat="44.2182" lon="4.48018">
        <ele>84.5</ele>
        <time>2024-08-31T14:26:19Z</time>
      </trkpt>
      <trkpt lat="44.21819" lon="4.48014">
        <ele>84.4</ele>
        <time>2024-08-31T14:26:20Z</time>
      </trkpt>
      <trkpt lat="44.21817" lon="4.48011">
        <ele>84.4</ele>
        <time>2024-08-31T14:26:21Z</time>
      </trkpt>
      <trkpt lat="44.21816" lon="4.48008">
        <ele>84.4</ele>
        <time>2024-08-31T14:26:22Z</time>
      </trkpt>
      <trkpt lat="44.21814" lon="4.48005">
        <ele>84.4</ele>
        <time>2024-08-31T14:26:23Z</time>
      </trkpt>
      <trkpt lat="44.21813" lon="4.48001">
        <ele>84.3</ele>
        <time>2024-08-31T14:26:24Z</time>
      </trkpt>
      <trkpt lat="44.21811" lon="4.47998">
        <ele>84.3</ele>
        <time>2024-08-31T14:26:25Z</time>
      </trkpt>
      <trkpt lat="44.21809" lon="4.47994">
        <ele>84.3</ele>
        <time>2024-08-31T14:26:26Z</time>
      </trkpt>
      <trkpt lat="44.21808" lon="4.47991">
        <ele>84.2</ele>
        <time>2024-08-31T14:26:27Z</time>
      </trkpt>
      <trkpt lat="44.21806" lon="4.47988">
        <ele>84.3</ele>
        <time>2024-08-31T14:26:28Z</time>
      </trkpt>
      <trkpt lat="44.21804" lon="4.47985">
        <ele>84.2</ele>
        <time>2024-08-31T14:26:29Z</time>
      </trkpt>
      <trkpt lat="44.21801" lon="4.47983">
        <ele>84.2</ele>
        <time>2024-08-31T14:26:30Z</time>
      </trkpt>
      <trkpt lat="44.21799" lon="4.4798">
        <ele>84.3</ele>
        <time>2024-08-31T14:26:31Z</time>
      </trkpt>
      <trkpt lat="44.21798" lon="4.47979">
        <ele>84.2</ele>
        <time>2024-08-31T14:26:32Z</time>
      </trkpt>
      <trkpt lat="44.21796" lon="4.47977">
        <ele>84.2</ele>
        <time>2024-08-31T14:26:33Z</time>
      </trkpt>
      <trkpt lat="44.21796" lon="4.47975">
        <ele>84.3</ele>
        <time>2024-08-31T14:26:34Z</time>
      </trkpt>
      <trkpt lat="44.21796" lon="4.47975">
        <ele>84.3</ele>
        <time>2024-08-31T14:26:35Z</time>
      </trkpt>
      <trkpt lat="44.21796" lon="4.47975">
        <ele>84.3</ele>
        <time>2024-08-31T14:26:36Z</time>
      </trkpt>
      <trkpt lat="44.21796" lon="4.47974">
        <ele>84.3</ele>
        <time>2024-08-31T14:26:37Z</time>
      </trkpt>
      <trkpt lat="44.21796" lon="4.47974">
        <ele>84.3</ele>
        <time>2024-08-31T14:26:38Z</time>
      </trkpt>
      <trkpt lat="44.21796" lon="4.47973">
        <ele>84.3</ele>
        <time>2024-08-31T14:26:39Z</time>
      </trkpt>
      <trkpt lat="44.21795" lon="4.47971">
        <ele>84.3</ele>
        <time>2024-08-31T14:26:40Z</time>
      </trkpt>
      <trkpt lat="44.21795" lon="4.4797">
        <ele>84.3</ele>
        <time>2024-08-31T14:26:41Z</time>
      </trkpt>
      <trkpt lat="44.21795" lon="4.47969">
        <ele>84.3</ele>
        <time>2024-08-31T14:26:42Z</time>
      </trkpt>
      <trkpt lat="44.21796" lon="4.47968">
        <ele>84.4</ele>
        <time>2024-08-31T14:26:43Z</time>
      </trkpt>
      <trkpt lat="44.21797" lon="4.47967">
        <ele>84.4</ele>
        <time>2024-08-31T14:26:44Z</time>
      </trkpt>
      <trkpt lat="44.21797" lon="4.47967">
        <ele>84.4</ele>
        <time>2024-08-31T14:26:45Z</time>
      </trkpt>
      <trkpt lat="44.21798" lon="4.47966">
        <ele>84.4</ele>
        <time>2024-08-31T14:26:46Z</time>
      </trkpt>
      <trkpt lat="44.21799" lon="4.47965">
        <ele>84.4</ele>
        <time>2024-08-31T14:26:47Z</time>
      </trkpt>
      <trkpt lat="44.218" lon="4.47964">
        <ele>84.4</ele>
        <time>2024-08-31T14:26:48Z</time>
      </trkpt>
      <trkpt lat="44.21801" lon="4.47963">
        <ele>84.5</ele>
        <time>2024-08-31T14:26:49Z</time>
      </trkpt>
      <trkpt lat="44.21801" lon="4.47962">
        <ele>84.4</ele>
        <time>2024-08-31T14:26:50Z</time>
      </trkpt>
      <trkpt lat="44.21801" lon="4.47961">
        <ele>84.4</ele>
        <time>2024-08-31T14:26:51Z</time>
      </trkpt>
      <trkpt lat="44.21802" lon="4.4796">
        <ele>84.4</ele>
        <time>2024-08-31T14:26:52Z</time>
      </trkpt>
      <trkpt lat="44.21802" lon="4.47958">
        <ele>84.5</ele>
        <time>2024-08-31T14:26:53Z</time>
      </trkpt>
      <trkpt lat="44.21802" lon="4.47957">
        <ele>84.5</ele>
        <time>2024-08-31T14:26:54Z</time>
      </trkpt>
      <trkpt lat="44.21802" lon="4.47956">
        <ele>84.5</ele>
        <time>2024-08-31T14:26:55Z</time>
      </trkpt>
      <trkpt lat="44.21801" lon="4.47955">
        <ele>84.5</ele>
        <time>2024-08-31T14:26:56Z</time>
      </trkpt>
      <trkpt lat="44.218" lon="4.47954">
        <ele>84.5</ele>
        <time>2024-08-31T14:26:57Z</time>
      </trkpt>
      <trkpt lat="44.21799" lon="4.47953">
        <ele>84.5</ele>
        <time>2024-08-31T14:26:58Z</time>
      </trkpt>
      <trkpt lat="44.21798" lon="4.47952">
        <ele>84.5</ele>
        <time>2024-08-31T14:26:59Z</time>
      </trkpt>
      <trkpt lat="44.21797" lon="4.47952">
        <ele>84.5</ele>
        <time>2024-08-31T14:27:00Z</time>
      </trkpt>
      <trkpt lat="44.21797" lon="4.4795">
        <ele>84.5</ele>
        <time>2024-08-31T14:27:01Z</time>
      </trkpt>
      <trkpt lat="44.21796" lon="4.47949">
        <ele>84.5</ele>
        <time>2024-08-31T14:27:02Z</time>
      </trkpt>
      <trkpt lat="44.21796" lon="4.47948">
        <ele>84.5</ele>
        <time>2024-08-31T14:27:03Z</time>
      </trkpt>
      <trkpt lat="44.21794" lon="4.47946">
        <ele>84.5</ele>
        <time>2024-08-31T14:27:04Z</time>
      </trkpt>
      <trkpt lat="44.21794" lon="4.47945">
        <ele>84.5</ele>
        <time>2024-08-31T14:27:05Z</time>
      </trkpt>
      <trkpt lat="44.21793" lon="4.47944">
        <ele>84.5</ele>
        <time>2024-08-31T14:27:06Z</time>
      </trkpt>
      <trkpt lat="44.21792" lon="4.47943">
        <ele>84.4</ele>
        <time>2024-08-31T14:27:07Z</time>
      </trkpt>
      <trkpt lat="44.21792" lon="4.47942">
        <ele>84.4</ele>
        <time>2024-08-31T14:27:08Z</time>
      </trkpt>
      <trkpt lat="44.21791" lon="4.47941">
        <ele>84.4</ele>
        <time>2024-08-31T14:27:09Z</time>
      </trkpt>
      <trkpt lat="44.21791" lon="4.4794">
        <ele>84.4</ele>
        <time>2024-08-31T14:27:10Z</time>
      </trkpt>
      <trkpt lat="44.21792" lon="4.47939">
        <ele>84.3</ele>
        <time>2024-08-31T14:28:00Z</time>
      </trkpt>
      <trkpt lat="44.21793" lon="4.47939">
        <ele>84.4</ele>
        <time>2024-08-31T14:28:01Z</time>
      </trkpt>
      <trkpt lat="44.21795" lon="4.47939">
        <ele>84.4</ele>
        <time>2024-08-31T14:28:02Z</time>
      </trkpt>
      <trkpt lat="44.21795" lon="4.47938">
        <ele>84.4</ele>
        <time>2024-08-31T14:28:03Z</time>
      </trkpt>
      <trkpt lat="44.21795" lon="4.47936">
        <ele>84.4</ele>
        <time>2024-08-31T14:28:04Z</time>
      </trkpt>
      <trkpt lat="44.21795" lon="4.47935">
        <ele>84.4</ele>
        <time>2024-08-31T14:28:05Z</time>
      </trkpt>
      <trkpt lat="44.21795" lon="4.47933">
        <ele>84.4</ele>
        <time>2024-08-31T14:28:06Z</time>
      </trkpt>
      <trkpt lat="44.21795" lon="4.47931">
        <ele>84.3</ele>
        <time>2024-08-31T14:28:07Z</time>
      </trkpt>
      <trkpt lat="44.21795" lon="4.47929">
        <ele>84.3</ele>
        <time>2024-08-31T14:28:08Z</time>
      </trkpt>
      <trkpt lat="44.21795" lon="4.47928">
        <ele>84.3</ele>
        <time>2024-08-31T14:28:09Z</time>
      </trkpt>
      <trkpt lat="44.21796" lon="4.47927">
        <ele>84.3</ele>
        <time>2024-08-31T14:28:10Z</time>
      </trkpt>
      <trkpt lat="44.21796" lon="4.47926">
        <ele>84.3</ele>
        <time>2024-08-31T14:28:11Z</time>
      </trkpt>
      <trkpt lat="44.21796" lon="4.47924">
        <ele>84.2</ele>
        <time>2024-08-31T14:28:13Z</time>
      </trkpt>
      <trkpt lat="44.21795" lon="4.47923">
        <ele>84.2</ele>
        <time>2024-08-31T14:29:18Z</time>
      </trkpt>
      <trkpt lat="44.21794" lon="4.47922">
        <ele>84.2</ele>
        <time>2024-08-31T14:29:19Z</time>
      </trkpt>
      <trkpt lat="44.21793" lon="4.47921">
        <ele>84.2</ele>
        <time>2024-08-31T14:29:20Z</time>
      </trkpt>
      <trkpt lat="44.21793" lon="4.4792">
        <ele>84.1</ele>
        <time>2024-08-31T14:29:21Z</time>
      </trkpt>
      <trkpt lat="44.21792" lon="4.4792">
        <ele>84.1</ele>
        <time>2024-08-31T14:29:22Z</time>
      </trkpt>
      <trkpt lat="44.21791" lon="4.47919">
        <ele>84.1</ele>
        <time>2024-08-31T14:29:23Z</time>
      </trkpt>
      <trkpt lat="44.2179" lon="4.47918">
        <ele>84.1</ele>
        <time>2024-08-31T14:29:24Z</time>
      </trkpt>
      <trkpt lat="44.2179" lon="4.47917">
        <ele>84.1</ele>
        <time>2024-08-31T14:29:25Z</time>
      </trkpt>
      <trkpt lat="44.21789" lon="4.47916">
        <ele>84.1</ele>
        <time>2024-08-31T14:29:26Z</time>
      </trkpt>
      <trkpt lat="44.21792" lon="4.47917">
        <ele>84.1</ele>
        <time>2024-08-31T14:29:27Z</time>
      </trkpt>
      <trkpt lat="44.21792" lon="4.47918">
        <ele>84.1</ele>
        <time>2024-08-31T14:29:28Z</time>
      </trkpt>
      <trkpt lat="44.21795" lon="4.47918">
        <ele>84</ele>
        <time>2024-08-31T14:29:29Z</time>
      </trkpt>
      <trkpt lat="44.21796" lon="4.47918">
        <ele>84</ele>
        <time>2024-08-31T14:29:30Z</time>
      </trkpt>
      <trkpt lat="44.21799" lon="4.47918">
        <ele>84.1</ele>
        <time>2024-08-31T14:29:31Z</time>
      </trkpt>
      <trkpt lat="44.218" lon="4.47918">
        <ele>84.1</ele>
        <time>2024-08-31T14:29:32Z</time>
      </trkpt>
      <trkpt lat="44.21803" lon="4.47918">
        <ele>84.1</ele>
        <time>2024-08-31T14:29:33Z</time>
      </trkpt>
      <trkpt lat="44.21803" lon="4.47918">
        <ele>84.1</ele>
        <time>2024-08-31T14:29:34Z</time>
      </trkpt>
      <trkpt lat="44.21804" lon="4.47917">
        <ele>84.1</ele>
        <time>2024-08-31T14:29:35Z</time>
      </trkpt>
      <trkpt lat="44.21805" lon="4.47913">
        <ele>84.1</ele>
        <time>2024-08-31T14:29:36Z</time>
      </trkpt>
      <trkpt lat="44.21805" lon="4.47911">
        <ele>84</ele>
        <time>2024-08-31T14:29:37Z</time>
      </trkpt>
      <trkpt lat="44.21804" lon="4.47907">
        <ele>83.9</ele>
        <time>2024-08-31T14:29:38Z</time>
      </trkpt>
      <trkpt lat="44.21804" lon="4.47906">
        <ele>83.9</ele>
        <time>2024-08-31T14:29:39Z</time>
      </trkpt>
      <trkpt lat="44.21802" lon="4.47902">
        <ele>83.8</ele>
        <time>2024-08-31T14:29:40Z</time>
      </trkpt>
      <trkpt lat="44.21801" lon="4.47901">
        <ele>83.8</ele>
        <time>2024-08-31T14:29:41Z</time>
      </trkpt>
      <trkpt lat="44.21799" lon="4.47898">
        <ele>83.8</ele>
        <time>2024-08-31T14:29:42Z</time>
      </trkpt>
      <trkpt lat="44.21798" lon="4.47896">
        <ele>83.8</ele>
        <time>2024-08-31T14:29:43Z</time>
      </trkpt>
      <trkpt lat="44.21797" lon="4.47893">
        <ele>83.8</ele>
        <time>2024-08-31T14:29:44Z</time>
      </trkpt>
      <trkpt lat="44.21797" lon="4.47891">
        <ele>83.8</ele>
        <time>2024-08-31T14:29:45Z</time>
      </trkpt>
      <trkpt lat="44.21797" lon="4.47889">
        <ele>83.8</ele>
        <time>2024-08-31T14:29:46Z</time>
      </trkpt>
      <trkpt lat="44.21798" lon="4.47888">
        <ele>83.8</ele>
        <time>2024-08-31T14:29:47Z</time>
      </trkpt>
      <trkpt lat="44.21799" lon="4.47886">
        <ele>83.7</ele>
        <time>2024-08-31T14:29:48Z</time>
      </trkpt>
      <trkpt lat="44.218" lon="4.47885">
        <ele>83.7</ele>
        <time>2024-08-31T14:29:49Z</time>
      </trkpt>
      <trkpt lat="44.218" lon="4.47882">
        <ele>83.7</ele>
        <time>2024-08-31T14:29:50Z</time>
      </trkpt>
      <trkpt lat="44.21801" lon="4.4788">
        <ele>83.6</ele>
        <time>2024-08-31T14:29:51Z</time>
      </trkpt>
      <trkpt lat="44.21802" lon="4.47877">
        <ele>83.5</ele>
        <time>2024-08-31T14:29:52Z</time>
      </trkpt>
      <trkpt lat="44.21803" lon="4.47876">
        <ele>83.5</ele>
        <time>2024-08-31T14:29:53Z</time>
      </trkpt>
      <trkpt lat="44.21804" lon="4.47875">
        <ele>83.5</ele>
        <time>2024-08-31T14:29:54Z</time>
      </trkpt>
      <trkpt lat="44.21806" lon="4.47875">
        <ele>83.5</ele>
        <time>2024-08-31T14:29:55Z</time>
      </trkpt>
      <trkpt lat="44.21809" lon="4.47875">
        <ele>83.4</ele>
        <time>2024-08-31T14:29:56Z</time>
      </trkpt>
      <trkpt lat="44.2181" lon="4.47874">
        <ele>83.4</ele>
        <time>2024-08-31T14:29:57Z</time>
      </trkpt>
      <trkpt lat="44.21812" lon="4.47873">
        <ele>83.4</ele>
        <time>2024-08-31T14:29:58Z</time>
      </trkpt>
      <trkpt lat="44.21813" lon="4.47873">
        <ele>83.3</ele>
        <time>2024-08-31T14:29:59Z</time>
      </trkpt>
      <trkpt lat="44.21815" lon="4.47872">
        <ele>83.3</ele>
        <time>2024-08-31T14:30:00Z</time>
      </trkpt>
      <trkpt lat="44.21816" lon="4.47873">
        <ele>83.3</ele>
        <time>2024-08-31T14:30:01Z</time>
      </trkpt>
      <trkpt lat="44.21819" lon="4.47875">
        <ele>83.3</ele>
        <time>2024-08-31T14:30:02Z</time>
      </trkpt>
      <trkpt lat="44.2182" lon="4.47876">
        <ele>83.3</ele>
        <time>2024-08-31T14:30:03Z</time>
      </trkpt>
      <trkpt lat="44.21821" lon="4.47877">
        <ele>83.2</ele>
        <time>2024-08-31T14:30:04Z</time>
      </trkpt>
      <trkpt lat="44.21822" lon="4.47878">
        <ele>83.3</ele>
        <time>2024-08-31T14:30:05Z</time>
      </trkpt>
      <trkpt lat="44.21824" lon="4.47881">
        <ele>83.3</ele>
        <time>2024-08-31T14:30:06Z</time>
      </trkpt>
      <trkpt lat="44.21824" lon="4.47882">
        <ele>83.3</ele>
        <time>2024-08-31T14:30:07Z</time>
      </trkpt>
      <trkpt lat="44.21825" lon="4.47882">
        <ele>83.3</ele>
        <time>2024-08-31T14:30:08Z</time>
      </trkpt>
      <trkpt lat="44.21826" lon="4.47883">
        <ele>83.3</ele>
        <time>2024-08-31T14:30:09Z</time>
      </trkpt>
      <trkpt lat="44.21827" lon="4.47882">
        <ele>83.3</ele>
        <time>2024-08-31T14:30:10Z</time>
      </trkpt>
      <trkpt lat="44.21828" lon="4.47881">
        <ele>83.2</ele>
        <time>2024-08-31T14:30:11Z</time>
      </trkpt>
      <trkpt lat="44.21829" lon="4.47877">
        <ele>83.2</ele>
        <time>2024-08-31T14:30:12Z</time>
      </trkpt>
      <trkpt lat="44.21829" lon="4.47876">
        <ele>83.2</ele>
        <time>2024-08-31T14:30:13Z</time>
      </trkpt>
      <trkpt lat="44.21829" lon="4.47873">
        <ele>83.2</ele>
        <time>2024-08-31T14:30:14Z</time>
      </trkpt>
      <trkpt lat="44.21829" lon="4.47871">
        <ele>83.2</ele>
        <time>2024-08-31T14:30:15Z</time>
      </trkpt>
      <trkpt lat="44.21828" lon="4.4787">
        <ele>83.2</ele>
        <time>2024-08-31T14:30:16Z</time>
      </trkpt>
      <trkpt lat="44.21827" lon="4.47868">
        <ele>83.2</ele>
        <time>2024-08-31T14:30:17Z</time>
      </trkpt>
      <trkpt lat="44.21826" lon="4.47868">
        <ele>83.2</ele>
        <time>2024-08-31T14:30:18Z</time>
      </trkpt>
      <trkpt lat="44.21825" lon="4.47867">
        <ele>83.2</ele>
        <time>2024-08-31T14:30:19Z</time>
      </trkpt>
      <trkpt lat="44.21824" lon="4.47864">
        <ele>83.3</ele>
        <time>2024-08-31T14:30:20Z</time>
      </trkpt>
      <trkpt lat="44.21823" lon="4.47861">
        <ele>83.3</ele>
        <time>2024-08-31T14:30:21Z</time>
      </trkpt>
      <trkpt lat="44.21822" lon="4.47857">
        <ele>83.3</ele>
        <time>2024-08-31T14:30:22Z</time>
      </trkpt>
      <trkpt lat="44.21823" lon="4.47852">
        <ele>83</ele>
        <time>2024-08-31T14:30:23Z</time>
      </trkpt>
      <trkpt lat="44.21823" lon="4.4785">
        <ele>83</ele>
        <time>2024-08-31T14:30:24Z</time>
      </trkpt>
      <trkpt lat="44.21824" lon="4.47847">
        <ele>82.9</ele>
        <time>2024-08-31T14:30:25Z</time>
      </trkpt>
      <trkpt lat="44.21826" lon="4.47844">
        <ele>83</ele>
        <time>2024-08-31T14:30:26Z</time>
      </trkpt>
      <trkpt lat="44.21829" lon="4.47841">
        <ele>82.8</ele>
        <time>2024-08-31T14:30:27Z</time>
      </trkpt>
      <trkpt lat="44.2183" lon="4.47837">
        <ele>82.6</ele>
        <time>2024-08-31T14:30:28Z</time>
      </trkpt>
      <trkpt lat="44.21831" lon="4.47836">
        <ele>82.6</ele>
        <time>2024-08-31T14:30:29Z</time>
      </trkpt>
      <trkpt lat="44.21831" lon="4.47831">
        <ele>82.3</ele>
        <time>2024-08-31T14:30:30Z</time>
      </trkpt>
      <trkpt lat="44.21831" lon="4.47829">
        <ele>82</ele>
        <time>2024-08-31T14:30:31Z</time>
      </trkpt>
      <trkpt lat="44.21829" lon="4.47829">
        <ele>81.6</ele>
        <time>2024-08-31T14:30:32Z</time>
      </trkpt>
      <trkpt lat="44.21828" lon="4.4783">
        <ele>81.6</ele>
        <time>2024-08-31T14:30:33Z</time>
      </trkpt>
      <trkpt lat="44.21827" lon="4.4783">
        <ele>81.6</ele>
        <time>2024-08-31T14:30:34Z</time>
      </trkpt>
      <trkpt lat="44.21824" lon="4.47832">
        <ele>81.8</ele>
        <time>2024-08-31T14:30:35Z</time>
      </trkpt>
      <trkpt lat="44.21824" lon="4.47832">
        <ele>81.8</ele>
        <time>2024-08-31T14:30:36Z</time>
      </trkpt>
      <trkpt lat="44.21821" lon="4.47833">
        <ele>81.5</ele>
        <time>2024-08-31T14:30:37Z</time>
      </trkpt>
      <trkpt lat="44.2182" lon="4.47834">
        <ele>81.3</ele>
        <time>2024-08-31T14:30:38Z</time>
      </trkpt>
      <trkpt lat="44.21818" lon="4.47834">
        <ele>81.3</ele>
        <time>2024-08-31T14:30:39Z</time>
      </trkpt>
      <trkpt lat="44.21816" lon="4.47835">
        <ele>81.5</ele>
        <time>2024-08-31T14:30:40Z</time>
      </trkpt>
      <trkpt lat="44.21815" lon="4.47834">
        <ele>81.1</ele>
        <time>2024-08-31T14:30:41Z</time>
      </trkpt>
      <trkpt lat="44.21814" lon="4.47832">
        <ele>80.9</ele>
        <time>2024-08-31T14:30:42Z</time>
      </trkpt>
      <trkpt lat="44.21813" lon="4.47829">
        <ele>80.5</ele>
        <time>2024-08-31T14:30:43Z</time>
      </trkpt>
      <trkpt lat="44.21813" lon="4.47828">
        <ele>80.5</ele>
        <time>2024-08-31T14:30:44Z</time>
      </trkpt>
      <trkpt lat="44.21813" lon="4.47827">
        <ele>80.5</ele>
        <time>2024-08-31T14:30:45Z</time>
      </trkpt>
      <trkpt lat="44.21815" lon="4.47824">
        <ele>80.2</ele>
        <time>2024-08-31T14:30:46Z</time>
      </trkpt>
      <trkpt lat="44.21816" lon="4.47824">
        <ele>80.2</ele>
        <time>2024-08-31T14:30:47Z</time>
      </trkpt>
      <trkpt lat="44.21818" lon="4.47823">
        <ele>80.4</ele>
        <time>2024-08-31T14:30:48Z</time>
      </trkpt>
      <trkpt lat="44.21819" lon="4.47824">
        <ele>80.4</ele>
        <time>2024-08-31T14:30:49Z</time>
      </trkpt>
      <trkpt lat="44.2182" lon="4.47823">
        <ele>80.6</ele>
        <time>2024-08-31T14:30:50Z</time>
      </trkpt>
      <trkpt lat="44.21821" lon="4.47823">
        <ele>80.6</ele>
        <time>2024-08-31T14:30:51Z</time>
      </trkpt>
      <trkpt lat="44.21822" lon="4.47822">
        <ele>80.6</ele>
        <time>2024-08-31T14:30:52Z</time>
      </trkpt>
      <trkpt lat="44.21822" lon="4.47822">
        <ele>80.6</ele>
        <time>2024-08-31T14:30:53Z</time>
      </trkpt>
      <trkpt lat="44.21823" lon="4.47821">
        <ele>80.3</ele>
        <time>2024-08-31T14:30:54Z</time>
      </trkpt>
      <trkpt lat="44.21824" lon="4.4782">
        <ele>80.6</ele>
        <time>2024-08-31T14:30:55Z</time>
      </trkpt>
      <trkpt lat="44.21825" lon="4.47818">
        <ele>80.5</ele>
        <time>2024-08-31T14:30:56Z</time>
      </trkpt>
      <trkpt lat="44.21826" lon="4.47816">
        <ele>80.4</ele>
        <time>2024-08-31T14:30:57Z</time>
      </trkpt>
      <trkpt lat="44.21826" lon="4.47813">
        <ele>80.3</ele>
        <time>2024-08-31T14:30:58Z</time>
      </trkpt>
      <trkpt lat="44.21828" lon="4.4781">
        <ele>80.5</ele>
        <time>2024-08-31T14:30:59Z</time>
      </trkpt>
      <trkpt lat="44.21829" lon="4.47809">
        <ele>80.5</ele>
        <time>2024-08-31T14:31:00Z</time>
      </trkpt>
      <trkpt lat="44.2183" lon="4.47808">
        <ele>80.5</ele>
        <time>2024-08-31T14:31:01Z</time>
      </trkpt>
      <trkpt lat="44.21832" lon="4.47807">
        <ele>80.5</ele>
        <time>2024-08-31T14:31:02Z</time>
      </trkpt>
      <trkpt lat="44.21833" lon="4.47807">
        <ele>80.7</ele>
        <time>2024-08-31T14:31:03Z</time>
      </trkpt>
      <trkpt lat="44.21834" lon="4.47807">
        <ele>80.7</ele>
        <time>2024-08-31T14:31:04Z</time>
      </trkpt>
      <trkpt lat="44.21835" lon="4.47807">
        <ele>80.7</ele>
        <time>2024-08-31T14:31:05Z</time>
      </trkpt>
      <trkpt lat="44.21836" lon="4.47806">
        <ele>80.8</ele>
        <time>2024-08-31T14:31:06Z</time>
      </trkpt>
      <trkpt lat="44.21837" lon="4.47807">
        <ele>80.8</ele>
        <time>2024-08-31T14:31:07Z</time>
      </trkpt>
      <trkpt lat="44.21838" lon="4.47808">
        <ele>80.8</ele>
        <time>2024-08-31T14:31:08Z</time>
      </trkpt>
      <trkpt lat="44.21839" lon="4.47811">
        <ele>81.2</ele>
        <time>2024-08-31T14:31:09Z</time>
      </trkpt>
      <trkpt lat="44.21839" lon="4.47811">
        <ele>81.4</ele>
        <time>2024-08-31T14:31:10Z</time>
      </trkpt>
      <trkpt lat="44.21839" lon="4.47812">
        <ele>81.4</ele>
        <time>2024-08-31T14:31:11Z</time>
      </trkpt>
      <trkpt lat="44.21839" lon="4.47813">
        <ele>81.4</ele>
        <time>2024-08-31T14:31:12Z</time>
      </trkpt>
      <trkpt lat="44.21841" lon="4.47816">
        <ele>81.8</ele>
        <time>2024-08-31T14:31:13Z</time>
      </trkpt>
      <trkpt lat="44.21842" lon="4.47817">
        <ele>82.1</ele>
        <time>2024-08-31T14:31:14Z</time>
      </trkpt>
      <trkpt lat="44.21844" lon="4.47818">
        <ele>82.4</ele>
        <time>2024-08-31T14:31:15Z</time>
      </trkpt>
      <trkpt lat="44.21845" lon="4.47819">
        <ele>82.7</ele>
        <time>2024-08-31T14:31:16Z</time>
      </trkpt>
      <trkpt lat="44.21845" lon="4.47821">
        <ele>82.7</ele>
        <time>2024-08-31T14:31:17Z</time>
      </trkpt>
      <trkpt lat="44.21845" lon="4.47821">
        <ele>82.6</ele>
        <time>2024-08-31T14:31:18Z</time>
      </trkpt>
      <trkpt lat="44.21845" lon="4.47822">
        <ele>82.4</ele>
        <time>2024-08-31T14:31:20Z</time>
      </trkpt>
      <trkpt lat="44.21844" lon="4.47822">
        <ele>82.6</ele>
        <time>2024-08-31T14:32:25Z</time>
      </trkpt>
      <trkpt lat="44.21844" lon="4.47823">
        <ele>82.6</ele>
        <time>2024-08-31T14:32:26Z</time>
      </trkpt>
      <trkpt lat="44.21844" lon="4.47823">
        <ele>82.6</ele>
        <time>2024-08-31T14:33:51Z</time>
      </trkpt>
      <trkpt lat="44.21843" lon="4.47824">
        <ele>82.6</ele>
        <time>2024-08-31T14:33:52Z</time>
      </trkpt>
      <trkpt lat="44.21843" lon="4.47824">
        <ele>82.6</ele>
        <time>2024-08-31T14:33:53Z</time>
      </trkpt>
      <trkpt lat="44.2185" lon="4.47821">
        <ele>82.8</ele>
        <time>2024-08-31T14:33:54Z</time>
      </trkpt>
      <trkpt lat="44.21853" lon="4.47823">
        <ele>83</ele>
        <time>2024-08-31T14:33:55Z</time>
      </trkpt>
      <trkpt lat="44.21854" lon="4.47826">
        <ele>83</ele>
        <time>2024-08-31T14:33:56Z</time>
      </trkpt>
      <trkpt lat="44.21856" lon="4.47826">
        <ele>83</ele>
        <time>2024-08-31T14:33:57Z</time>
      </trkpt>
      <trkpt lat="44.21857" lon="4.47824">
        <ele>83</ele>
        <time>2024-08-31T14:33:58Z</time>
      </trkpt>
      <trkpt lat="44.21857" lon="4.47824">
        <ele>83</ele>
        <time>2024-08-31T14:33:59Z</time>
      </trkpt>
      <trkpt lat="44.21858" lon="4.47823">
        <ele>83</ele>
        <time>2024-08-31T14:34:00Z</time>
      </trkpt>
      <trkpt lat="44.21858" lon="4.47822">
        <ele>83</ele>
        <time>2024-08-31T14:34:01Z</time>
      </trkpt>
      <trkpt lat="44.21859" lon="4.4782">
        <ele>82.9</ele>
        <time>2024-08-31T14:34:02Z</time>
      </trkpt>
      <trkpt lat="44.2186" lon="4.47819">
        <ele>82.9</ele>
        <time>2024-08-31T14:34:03Z</time>
      </trkpt>
      <trkpt lat="44.2186" lon="4.47818">
        <ele>82.9</ele>
        <time>2024-08-31T14:34:04Z</time>
      </trkpt>
      <trkpt lat="44.21861" lon="4.47816">
        <ele>82.8</ele>
        <time>2024-08-31T14:34:05Z</time>
      </trkpt>
      <trkpt lat="44.21863" lon="4.47814">
        <ele>82.7</ele>
        <time>2024-08-31T14:34:06Z</time>
      </trkpt>
      <trkpt lat="44.21865" lon="4.4781">
        <ele>82.7</ele>
        <time>2024-08-31T14:34:07Z</time>
      </trkpt>
      <trkpt lat="44.21866" lon="4.47809">
        <ele>82.7</ele>
        <time>2024-08-31T14:34:08Z</time>
      </trkpt>
      <trkpt lat="44.21867" lon="4.47805">
        <ele>82.7</ele>
        <time>2024-08-31T14:34:09Z</time>
      </trkpt>
      <trkpt lat="44.21867" lon="4.47804">
        <ele>82.6</ele>
        <time>2024-08-31T14:34:10Z</time>
      </trkpt>
      <trkpt lat="44.21869" lon="4.47801">
        <ele>82.7</ele>
        <time>2024-08-31T14:34:11Z</time>
      </trkpt>
      <trkpt lat="44.2187" lon="4.478">
        <ele>82.6</ele>
        <time>2024-08-31T14:34:12Z</time>
      </trkpt>
      <trkpt lat="44.21872" lon="4.47798">
        <ele>82.6</ele>
        <time>2024-08-31T14:34:13Z</time>
      </trkpt>
      <trkpt lat="44.21873" lon="4.47797">
        <ele>82.8</ele>
        <time>2024-08-31T14:34:14Z</time>
      </trkpt>
      <trkpt lat="44.21876" lon="4.47795">
        <ele>82.8</ele>
        <time>2024-08-31T14:34:15Z</time>
      </trkpt>
      <trkpt lat="44.21876" lon="4.47794">
        <ele>82.8</ele>
        <time>2024-08-31T14:34:16Z</time>
      </trkpt>
      <trkpt lat="44.21879" lon="4.47791">
        <ele>82.7</ele>
        <time>2024-08-31T14:34:17Z</time>
      </trkpt>
      <trkpt lat="44.21879" lon="4.47789">
        <ele>82.6</ele>
        <time>2024-08-31T14:34:18Z</time>
      </trkpt>
      <trkpt lat="44.21881" lon="4.47787">
        <ele>82.3</ele>
        <time>2024-08-31T14:34:19Z</time>
      </trkpt>
      <trkpt lat="44.21884" lon="4.47784">
        <ele>82.4</ele>
        <time>2024-08-31T14:34:20Z</time>
      </trkpt>
      <trkpt lat="44.21885" lon="4.47782">
        <ele>82.2</ele>
        <time>2024-08-31T14:34:21Z</time>
      </trkpt>
      <trkpt lat="44.21887" lon="4.47779">
        <ele>82.2</ele>
        <time>2024-08-31T14:34:22Z</time>
      </trkpt>
      <trkpt lat="44.21888" lon="4.47778">
        <ele>82</ele>
        <time>2024-08-31T14:34:23Z</time>
      </trkpt>
      <trkpt lat="44.21891" lon="4.47775">
        <ele>82</ele>
        <time>2024-08-31T14:34:24Z</time>
      </trkpt>
      <trkpt lat="44.21892" lon="4.47774">
        <ele>81.9</ele>
        <time>2024-08-31T14:34:25Z</time>
      </trkpt>
      <trkpt lat="44.21894" lon="4.47772">
        <ele>82.1</ele>
        <time>2024-08-31T14:34:26Z</time>
      </trkpt>
      <trkpt lat="44.21895" lon="4.47771">
        <ele>82.1</ele>
        <time>2024-08-31T14:34:27Z</time>
      </trkpt>
      <trkpt lat="44.21898" lon="4.47768">
        <ele>82.1</ele>
        <time>2024-08-31T14:34:28Z</time>
      </trkpt>
      <trkpt lat="44.21899" lon="4.47767">
        <ele>82.1</ele>
        <time>2024-08-31T14:34:29Z</time>
      </trkpt>
      <trkpt lat="44.21901" lon="4.47763">
        <ele>82.1</ele>
        <time>2024-08-31T14:34:30Z</time>
      </trkpt>
      <trkpt lat="44.21902" lon="4.47762">
        <ele>82</ele>
        <time>2024-08-31T14:34:31Z</time>
      </trkpt>
      <trkpt lat="44.21904" lon="4.4776">
        <ele>81.9</ele>
        <time>2024-08-31T14:34:32Z</time>
      </trkpt>
      <trkpt lat="44.21905" lon="4.47759">
        <ele>81.9</ele>
        <time>2024-08-31T14:34:33Z</time>
      </trkpt>
      <trkpt lat="44.21906" lon="4.47759">
        <ele>81.9</ele>
        <time>2024-08-31T14:34:34Z</time>
      </trkpt>
      <trkpt lat="44.21907" lon="4.47759">
        <ele>82</ele>
        <time>2024-08-31T14:34:35Z</time>
      </trkpt>
      <trkpt lat="44.21907" lon="4.4776">
        <ele>82</ele>
        <time>2024-08-31T14:34:36Z</time>
      </trkpt>
      <trkpt lat="44.21908" lon="4.47759">
        <ele>82</ele>
        <time>2024-08-31T14:34:37Z</time>
      </trkpt>
      <trkpt lat="44.21908" lon="4.4776">
        <ele>82</ele>
        <time>2024-08-31T14:34:38Z</time>
      </trkpt>
      <trkpt lat="44.21908" lon="4.4776">
        <ele>82</ele>
        <time>2024-08-31T14:34:39Z</time>
      </trkpt>
      <trkpt lat="44.21908" lon="4.47759">
        <ele>82</ele>
        <time>2024-08-31T14:34:40Z</time>
      </trkpt>
      <trkpt lat="44.21908" lon="4.47759">
        <ele>82</ele>
        <time>2024-08-31T14:34:41Z</time>
      </trkpt>
      <trkpt lat="44.21908" lon="4.47759">
        <ele>82</ele>
        <time>2024-08-31T14:34:42Z</time>
      </trkpt>
      <trkpt lat="44.21908" lon="4.47759">
        <ele>82</ele>
        <time>2024-08-31T14:34:43Z</time>
      </trkpt>
      <trkpt lat="44.21908" lon="4.47758">
        <ele>82</ele>
        <time>2024-08-31T14:34:44Z</time>
      </trkpt>
      <trkpt lat="44.21909" lon="4.47759">
        <ele>82</ele>
        <time>2024-08-31T14:34:45Z</time>
      </trkpt>
      <trkpt lat="44.21909" lon="4.47758">
        <ele>82</ele>
        <time>2024-08-31T14:34:46Z</time>
      </trkpt>
      <trkpt lat="44.21909" lon="4.47758">
        <ele>82</ele>
        <time>2024-08-31T14:34:47Z</time>
      </trkpt>
      <trkpt lat="44.21909" lon="4.47758">
        <ele>81.9</ele>
        <time>2024-08-31T14:34:48Z</time>
      </trkpt>
      <trkpt lat="44.21908" lon="4.47758">
        <ele>81.9</ele>
        <time>2024-08-31T14:34:49Z</time>
      </trkpt>
      <trkpt lat="44.21908" lon="4.47758">
        <ele>81.9</ele>
        <time>2024-08-31T14:34:50Z</time>
      </trkpt>
      <trkpt lat="44.21908" lon="4.47758">
        <ele>81.9</ele>
        <time>2024-08-31T14:34:51Z</time>
      </trkpt>
      <trkpt lat="44.21908" lon="4.47758">
        <ele>81.9</ele>
        <time>2024-08-31T14:34:52Z</time>
      </trkpt>
      <trkpt lat="44.21908" lon="4.47758">
        <ele>81.9</ele>
        <time>2024-08-31T14:34:53Z</time>
      </trkpt>
      <trkpt lat="44.21908" lon="4.47758">
        <ele>81.9</ele>
        <time>2024-08-31T14:34:54Z</time>
      </trkpt>
      <trkpt lat="44.21908" lon="4.47758">
        <ele>81.9</ele>
        <time>2024-08-31T14:34:55Z</time>
      </trkpt>
      <trkpt lat="44.21908" lon="4.47758">
        <ele>81.9</ele>
        <time>2024-08-31T14:34:56Z</time>
      </trkpt>
      <trkpt lat="44.2191" lon="4.47762">
        <ele>81.8</ele>
        <time>2024-08-31T14:35:03Z</time>
      </trkpt>
      <trkpt lat="44.21911" lon="4.47763">
        <ele>81.8</ele>
        <time>2024-08-31T14:35:04Z</time>
      </trkpt>
      <trkpt lat="44.21912" lon="4.47764">
        <ele>81.7</ele>
        <time>2024-08-31T14:35:05Z</time>
      </trkpt>
      <trkpt lat="44.21913" lon="4.47764">
        <ele>81.7</ele>
        <time>2024-08-31T14:35:06Z</time>
      </trkpt>
      <trkpt lat="44.21914" lon="4.47766">
        <ele>81.6</ele>
        <time>2024-08-31T14:35:07Z</time>
      </trkpt>
      <trkpt lat="44.21915" lon="4.47767">
        <ele>81.6</ele>
        <time>2024-08-31T14:35:08Z</time>
      </trkpt>
      <trkpt lat="44.21915" lon="4.47768">
        <ele>81.6</ele>
        <time>2024-08-31T14:35:09Z</time>
      </trkpt>
      <trkpt lat="44.21916" lon="4.47769">
        <ele>81.5</ele>
        <time>2024-08-31T14:35:10Z</time>
      </trkpt>
      <trkpt lat="44.21917" lon="4.47771">
        <ele>81.5</ele>
        <time>2024-08-31T14:35:11Z</time>
      </trkpt>
      <trkpt lat="44.21917" lon="4.47772">
        <ele>81.4</ele>
        <time>2024-08-31T14:35:12Z</time>
      </trkpt>
      <trkpt lat="44.21918" lon="4.47773">
        <ele>81.4</ele>
        <time>2024-08-31T14:35:13Z</time>
      </trkpt>
      <trkpt lat="44.21919" lon="4.47774">
        <ele>81.3</ele>
        <time>2024-08-31T14:35:14Z</time>
      </trkpt>
      <trkpt lat="44.2192" lon="4.47775">
        <ele>81.3</ele>
        <time>2024-08-31T14:35:15Z</time>
      </trkpt>
      <trkpt lat="44.21921" lon="4.47777">
        <ele>81.2</ele>
        <time>2024-08-31T14:35:16Z</time>
      </trkpt>
      <trkpt lat="44.21922" lon="4.47778">
        <ele>81.2</ele>
        <time>2024-08-31T14:35:17Z</time>
      </trkpt>
      <trkpt lat="44.21922" lon="4.47779">
        <ele>81.2</ele>
        <time>2024-08-31T14:35:18Z</time>
      </trkpt>
      <trkpt lat="44.21924" lon="4.47782">
        <ele>81.1</ele>
        <time>2024-08-31T14:35:19Z</time>
      </trkpt>
      <trkpt lat="44.21925" lon="4.47783">
        <ele>81.1</ele>
        <time>2024-08-31T14:35:20Z</time>
      </trkpt>
      <trkpt lat="44.21927" lon="4.47785">
        <ele>81</ele>
        <time>2024-08-31T14:35:21Z</time>
      </trkpt>
      <trkpt lat="44.21928" lon="4.47786">
        <ele>81</ele>
        <time>2024-08-31T14:35:22Z</time>
      </trkpt>
      <trkpt lat="44.21931" lon="4.47789">
        <ele>80.9</ele>
        <time>2024-08-31T14:35:23Z</time>
      </trkpt>
      <trkpt lat="44.21932" lon="4.4779">
        <ele>80.8</ele>
        <time>2024-08-31T14:35:24Z</time>
      </trkpt>
      <trkpt lat="44.21935" lon="4.47794">
        <ele>80.8</ele>
        <time>2024-08-31T14:35:25Z</time>
      </trkpt>
      <trkpt lat="44.21935" lon="4.47795">
        <ele>80.7</ele>
        <time>2024-08-31T14:35:26Z</time>
      </trkpt>
      <trkpt lat="44.21938" lon="4.47798">
        <ele>80.7</ele>
        <time>2024-08-31T14:35:27Z</time>
      </trkpt>
      <trkpt lat="44.21939" lon="4.47799">
        <ele>80.6</ele>
        <time>2024-08-31T14:35:28Z</time>
      </trkpt>
      <trkpt lat="44.21941" lon="4.47801">
        <ele>80.6</ele>
        <time>2024-08-31T14:35:29Z</time>
      </trkpt>
      <trkpt lat="44.21942" lon="4.47803">
        <ele>80.6</ele>
        <time>2024-08-31T14:35:30Z</time>
      </trkpt>
      <trkpt lat="44.21942" lon="4.47804">
        <ele>80.6</ele>
        <time>2024-08-31T14:35:31Z</time>
      </trkpt>
      <trkpt lat="44.21943" lon="4.47806">
        <ele>80.5</ele>
        <time>2024-08-31T14:35:32Z</time>
      </trkpt>
      <trkpt lat="44.21944" lon="4.47808">
        <ele>80.5</ele>
        <time>2024-08-31T14:35:33Z</time>
      </trkpt>
      <trkpt lat="44.21945" lon="4.47809">
        <ele>80.5</ele>
        <time>2024-08-31T14:35:34Z</time>
      </trkpt>
      <trkpt lat="44.21946" lon="4.47811">
        <ele>80.5</ele>
        <time>2024-08-31T14:35:35Z</time>
      </trkpt>
      <trkpt lat="44.21947" lon="4.47814">
        <ele>80.4</ele>
        <time>2024-08-31T14:35:36Z</time>
      </trkpt>
      <trkpt lat="44.21948" lon="4.47817">
        <ele>80.4</ele>
        <time>2024-08-31T14:35:37Z</time>
      </trkpt>
      <trkpt lat="44.21949" lon="4.47818">
        <ele>80.4</ele>
        <time>2024-08-31T14:35:38Z</time>
      </trkpt>
      <trkpt lat="44.21951" lon="4.47821">
        <ele>80.4</ele>
        <time>2024-08-31T14:35:39Z</time>
      </trkpt>
      <trkpt lat="44.21952" lon="4.47823">
        <ele>80.4</ele>
        <time>2024-08-31T14:35:40Z</time>
      </trkpt>
      <trkpt lat="44.21955" lon="4.47826">
        <ele>80.3</ele>
        <time>2024-08-31T14:35:41Z</time>
      </trkpt>
      <trkpt lat="44.21955" lon="4.47828">
        <ele>80.3</ele>
        <time>2024-08-31T14:35:42Z</time>
      </trkpt>
      <trkpt lat="44.21958" lon="4.47831">
        <ele>80.3</ele>
        <time>2024-08-31T14:35:43Z</time>
      </trkpt>
      <trkpt lat="44.21959" lon="4.47832">
        <ele>80.3</ele>
        <time>2024-08-31T14:35:44Z</time>
      </trkpt>
      <trkpt lat="44.21962" lon="4.47835">
        <ele>80.4</ele>
        <time>2024-08-31T14:35:45Z</time>
      </trkpt>
      <trkpt lat="44.21963" lon="4.47836">
        <ele>80.4</ele>
        <time>2024-08-31T14:35:46Z</time>
      </trkpt>
      <trkpt lat="44.21966" lon="4.47839">
        <ele>80.4</ele>
        <time>2024-08-31T14:35:47Z</time>
      </trkpt>
      <trkpt lat="44.21967" lon="4.4784">
        <ele>80.4</ele>
        <time>2024-08-31T14:35:48Z</time>
      </trkpt>
      <trkpt lat="44.2197" lon="4.47843">
        <ele>80.4</ele>
        <time>2024-08-31T14:35:49Z</time>
      </trkpt>
      <trkpt lat="44.21971" lon="4.47843">
        <ele>80.4</ele>
        <time>2024-08-31T14:35:50Z</time>
      </trkpt>
      <trkpt lat="44.21974" lon="4.47846">
        <ele>80.4</ele>
        <time>2024-08-31T14:35:51Z</time>
      </trkpt>
      <trkpt lat="44.21975" lon="4.47848">
        <ele>80.5</ele>
        <time>2024-08-31T14:35:52Z</time>
      </trkpt>
      <trkpt lat="44.21978" lon="4.47851">
        <ele>80.5</ele>
        <time>2024-08-31T14:35:53Z</time>
      </trkpt>
      <trkpt lat="44.21979" lon="4.47852">
        <ele>80.5</ele>
        <time>2024-08-31T14:35:54Z</time>
      </trkpt>
      <trkpt lat="44.21982" lon="4.47854">
        <ele>80.5</ele>
        <time>2024-08-31T14:35:55Z</time>
      </trkpt>
      <trkpt lat="44.21984" lon="4.47856">
        <ele>80.5</ele>
        <time>2024-08-31T14:35:56Z</time>
      </trkpt>
      <trkpt lat="44.21987" lon="4.47859">
        <ele>80.6</ele>
        <time>2024-08-31T14:35:57Z</time>
      </trkpt>
      <trkpt lat="44.21988" lon="4.4786">
        <ele>80.6</ele>
        <time>2024-08-31T14:35:58Z</time>
      </trkpt>
      <trkpt lat="44.21992" lon="4.47863">
        <ele>80.6</ele>
        <time>2024-08-31T14:35:59Z</time>
      </trkpt>
      <trkpt lat="44.21993" lon="4.47864">
        <ele>80.6</ele>
        <time>2024-08-31T14:36:00Z</time>
      </trkpt>
      <trkpt lat="44.21996" lon="4.47866">
        <ele>80.6</ele>
        <time>2024-08-31T14:36:01Z</time>
      </trkpt>
      <trkpt lat="44.21997" lon="4.47867">
        <ele>80.6</ele>
        <time>2024-08-31T14:36:02Z</time>
      </trkpt>
      <trkpt lat="44.22" lon="4.4787">
        <ele>80.7</ele>
        <time>2024-08-31T14:36:03Z</time>
      </trkpt>
      <trkpt lat="44.22001" lon="4.47872">
        <ele>80.7</ele>
        <time>2024-08-31T14:36:04Z</time>
      </trkpt>
      <trkpt lat="44.22004" lon="4.47875">
        <ele>80.7</ele>
        <time>2024-08-31T14:36:05Z</time>
      </trkpt>
      <trkpt lat="44.22005" lon="4.47876">
        <ele>80.7</ele>
        <time>2024-08-31T14:36:06Z</time>
      </trkpt>
      <trkpt lat="44.22008" lon="4.47879">
        <ele>80.7</ele>
        <time>2024-08-31T14:36:07Z</time>
      </trkpt>
      <trkpt lat="44.2201" lon="4.4788">
        <ele>80.7</ele>
        <time>2024-08-31T14:36:08Z</time>
      </trkpt>
      <trkpt lat="44.22013" lon="4.47883">
        <ele>80.8</ele>
        <time>2024-08-31T14:36:09Z</time>
      </trkpt>
      <trkpt lat="44.22014" lon="4.47884">
        <ele>80.8</ele>
        <time>2024-08-31T14:36:10Z</time>
      </trkpt>
      <trkpt lat="44.22017" lon="4.47886">
        <ele>80.8</ele>
        <time>2024-08-31T14:36:11Z</time>
      </trkpt>
      <trkpt lat="44.22018" lon="4.47887">
        <ele>80.8</ele>
        <time>2024-08-31T14:36:12Z</time>
      </trkpt>
      <trkpt lat="44.22021" lon="4.47891">
        <ele>80.9</ele>
        <time>2024-08-31T14:36:13Z</time>
      </trkpt>
      <trkpt lat="44.22021" lon="4.47892">
        <ele>80.9</ele>
        <time>2024-08-31T14:36:14Z</time>
      </trkpt>
      <trkpt lat="44.22024" lon="4.47895">
        <ele>80.9</ele>
        <time>2024-08-31T14:36:15Z</time>
      </trkpt>
      <trkpt lat="44.22025" lon="4.47895">
        <ele>80.9</ele>
        <time>2024-08-31T14:36:16Z</time>
      </trkpt>
      <trkpt lat="44.22028" lon="4.47899">
        <ele>81</ele>
        <time>2024-08-31T14:36:17Z</time>
      </trkpt>
      <trkpt lat="44.22029" lon="4.47901">
        <ele>81</ele>
        <time>2024-08-31T14:36:18Z</time>
      </trkpt>
      <trkpt lat="44.2203" lon="4.47904">
        <ele>81</ele>
        <time>2024-08-31T14:36:19Z</time>
      </trkpt>
      <trkpt lat="44.2203" lon="4.47905">
        <ele>81</ele>
        <time>2024-08-31T14:36:20Z</time>
      </trkpt>
      <trkpt lat="44.2203" lon="4.47907">
        <ele>81</ele>
        <time>2024-08-31T14:36:21Z</time>
      </trkpt>
      <trkpt lat="44.22031" lon="4.47909">
        <ele>81.1</ele>
        <time>2024-08-31T14:36:22Z</time>
      </trkpt>
      <trkpt lat="44.2203" lon="4.47913">
        <ele>81.1</ele>
        <time>2024-08-31T14:36:23Z</time>
      </trkpt>
      <trkpt lat="44.2203" lon="4.47915">
        <ele>81.1</ele>
        <time>2024-08-31T14:36:24Z</time>
      </trkpt>
      <trkpt lat="44.22028" lon="4.47918">
        <ele>81</ele>
        <time>2024-08-31T14:36:25Z</time>
      </trkpt>
      <trkpt lat="44.22027" lon="4.47919">
        <ele>81</ele>
        <time>2024-08-31T14:36:26Z</time>
      </trkpt>
      <trkpt lat="44.22026" lon="4.47921">
        <ele>81</ele>
        <time>2024-08-31T14:36:27Z</time>
      </trkpt>
      <trkpt lat="44.22025" lon="4.47923">
        <ele>81</ele>
        <time>2024-08-31T14:36:28Z</time>
      </trkpt>
      <trkpt lat="44.22024" lon="4.47924">
        <ele>81</ele>
        <time>2024-08-31T14:36:29Z</time>
      </trkpt>
      <trkpt lat="44.22023" lon="4.47926">
        <ele>81</ele>
        <time>2024-08-31T14:36:30Z</time>
      </trkpt>
      <trkpt lat="44.22022" lon="4.47927">
        <ele>81</ele>
        <time>2024-08-31T14:36:31Z</time>
      </trkpt>
      <trkpt lat="44.22021" lon="4.47929">
        <ele>81</ele>
        <time>2024-08-31T14:36:32Z</time>
      </trkpt>
      <trkpt lat="44.2202" lon="4.47932">
        <ele>80.9</ele>
        <time>2024-08-31T14:36:33Z</time>
      </trkpt>
      <trkpt lat="44.22019" lon="4.47933">
        <ele>80.9</ele>
        <time>2024-08-31T14:36:34Z</time>
      </trkpt>
      <trkpt lat="44.22017" lon="4.47936">
        <ele>80.9</ele>
        <time>2024-08-31T14:36:35Z</time>
      </trkpt>
      <trkpt lat="44.22017" lon="4.47937">
        <ele>80.9</ele>
        <time>2024-08-31T14:36:36Z</time>
      </trkpt>
      <trkpt lat="44.22015" lon="4.47941">
        <ele>80.9</ele>
        <time>2024-08-31T14:36:37Z</time>
      </trkpt>
      <trkpt lat="44.22015" lon="4.47942">
        <ele>80.9</ele>
        <time>2024-08-31T14:36:38Z</time>
      </trkpt>
      <trkpt lat="44.22013" lon="4.47945">
        <ele>80.9</ele>
        <time>2024-08-31T14:36:39Z</time>
      </trkpt>
      <trkpt lat="44.22013" lon="4.47946">
        <ele>80.9</ele>
        <time>2024-08-31T14:36:40Z</time>
      </trkpt>
      <trkpt lat="44.22011" lon="4.47949">
        <ele>80.8</ele>
        <time>2024-08-31T14:36:41Z</time>
      </trkpt>
      <trkpt lat="44.2201" lon="4.4795">
        <ele>80.8</ele>
        <time>2024-08-31T14:36:42Z</time>
      </trkpt>
      <trkpt lat="44.22009" lon="4.47954">
        <ele>80.8</ele>
        <time>2024-08-31T14:36:43Z</time>
      </trkpt>
      <trkpt lat="44.22008" lon="4.47955">
        <ele>80.8</ele>
        <time>2024-08-31T14:36:44Z</time>
      </trkpt>
      <trkpt lat="44.22007" lon="4.47957">
        <ele>80.8</ele>
        <time>2024-08-31T14:36:45Z</time>
      </trkpt>
      <trkpt lat="44.22006" lon="4.47958">
        <ele>80.8</ele>
        <time>2024-08-31T14:36:46Z</time>
      </trkpt>
      <trkpt lat="44.22006" lon="4.47959">
        <ele>80.8</ele>
        <time>2024-08-31T14:36:47Z</time>
      </trkpt>
      <trkpt lat="44.22006" lon="4.4796">
        <ele>80.8</ele>
        <time>2024-08-31T14:36:48Z</time>
      </trkpt>
      <trkpt lat="44.22006" lon="4.4796">
        <ele>80.8</ele>
        <time>2024-08-31T14:36:49Z</time>
      </trkpt>
      <trkpt lat="44.22006" lon="4.4796">
        <ele>80.8</ele>
        <time>2024-08-31T14:36:50Z</time>
      </trkpt>
      <trkpt lat="44.22006" lon="4.4796">
        <ele>80.8</ele>
        <time>2024-08-31T14:36:51Z</time>
      </trkpt>
      <trkpt lat="44.22006" lon="4.47961">
        <ele>80.8</ele>
        <time>2024-08-31T14:36:52Z</time>
      </trkpt>
      <trkpt lat="44.22006" lon="4.47961">
        <ele>80.8</ele>
        <time>2024-08-31T14:36:53Z</time>
      </trkpt>
      <trkpt lat="44.22006" lon="4.47961">
        <ele>80.8</ele>
        <time>2024-08-31T14:36:54Z</time>
      </trkpt>
      <trkpt lat="44.22006" lon="4.47961">
        <ele>80.8</ele>
        <time>2024-08-31T14:36:55Z</time>
      </trkpt>
      <trkpt lat="44.22006" lon="4.47962">
        <ele>80.8</ele>
        <time>2024-08-31T14:36:56Z</time>
      </trkpt>
      <trkpt lat="44.22006" lon="4.47962">
        <ele>80.8</ele>
        <time>2024-08-31T14:36:57Z</time>
      </trkpt>
      <trkpt lat="44.22006" lon="4.47962">
        <ele>80.8</ele>
        <time>2024-08-31T14:36:58Z</time>
      </trkpt>
      <trkpt lat="44.22006" lon="4.47962">
        <ele>80.8</ele>
        <time>2024-08-31T14:36:59Z</time>
      </trkpt>
      <trkpt lat="44.22006" lon="4.47963">
        <ele>80.8</ele>
        <time>2024-08-31T14:37:00Z</time>
      </trkpt>
      <trkpt lat="44.22006" lon="4.47963">
        <ele>80.8</ele>
        <time>2024-08-31T14:37:01Z</time>
      </trkpt>
      <trkpt lat="44.22006" lon="4.47963">
        <ele>80.8</ele>
        <time>2024-08-31T14:37:02Z</time>
      </trkpt>
      <trkpt lat="44.22006" lon="4.47963">
        <ele>80.8</ele>
        <time>2024-08-31T14:37:03Z</time>
      </trkpt>
      <trkpt lat="44.22006" lon="4.47964">
        <ele>80.8</ele>
        <time>2024-08-31T14:37:04Z</time>
      </trkpt>
      <trkpt lat="44.22006" lon="4.47964">
        <ele>80.8</ele>
        <time>2024-08-31T14:37:05Z</time>
      </trkpt>
      <trkpt lat="44.22005" lon="4.47968">
        <ele>80.8</ele>
        <time>2024-08-31T14:37:06Z</time>
      </trkpt>
      <trkpt lat="44.22004" lon="4.4797">
        <ele>80.8</ele>
        <time>2024-08-31T14:37:07Z</time>
      </trkpt>
      <trkpt lat="44.22003" lon="4.47974">
        <ele>80.8</ele>
        <time>2024-08-31T14:37:08Z</time>
      </trkpt>
      <trkpt lat="44.22003" lon="4.47975">
        <ele>80.8</ele>
        <time>2024-08-31T14:37:09Z</time>
      </trkpt>
      <trkpt lat="44.22003" lon="4.47976">
        <ele>80.8</ele>
        <time>2024-08-31T14:37:10Z</time>
      </trkpt>
      <trkpt lat="44.22003" lon="4.47978">
        <ele>80.8</ele>
        <time>2024-08-31T14:37:11Z</time>
      </trkpt>
      <trkpt lat="44.22003" lon="4.47979">
        <ele>80.8</ele>
        <time>2024-08-31T14:37:12Z</time>
      </trkpt>
      <trkpt lat="44.22003" lon="4.47981">
        <ele>80.8</ele>
        <time>2024-08-31T14:37:13Z</time>
      </trkpt>
      <trkpt lat="44.22003" lon="4.47981">
        <ele>80.8</ele>
        <time>2024-08-31T14:37:14Z</time>
      </trkpt>
      <trkpt lat="44.22003" lon="4.47982">
        <ele>80.8</ele>
        <time>2024-08-31T14:37:15Z</time>
      </trkpt>
      <trkpt lat="44.22004" lon="4.47982">
        <ele>80.8</ele>
        <time>2024-08-31T14:37:16Z</time>
      </trkpt>
      <trkpt lat="44.22004" lon="4.47981">
        <ele>80.8</ele>
        <time>2024-08-31T14:37:17Z</time>
      </trkpt>
      <trkpt lat="44.22004" lon="4.47981">
        <ele>80.8</ele>
        <time>2024-08-31T14:37:18Z</time>
      </trkpt>
      <trkpt lat="44.22003" lon="4.47981">
        <ele>80.8</ele>
        <time>2024-08-31T14:37:19Z</time>
      </trkpt>
      <trkpt lat="44.22003" lon="4.47982">
        <ele>80.8</ele>
        <time>2024-08-31T14:37:20Z</time>
      </trkpt>
      <trkpt lat="44.22002" lon="4.47983">
        <ele>80.8</ele>
        <time>2024-08-31T14:37:21Z</time>
      </trkpt>
      <trkpt lat="44.22001" lon="4.47984">
        <ele>80.8</ele>
        <time>2024-08-31T14:37:22Z</time>
      </trkpt>
      <trkpt lat="44.22" lon="4.47986">
        <ele>80.8</ele>
        <time>2024-08-31T14:37:23Z</time>
      </trkpt>
      <trkpt lat="44.21999" lon="4.47987">
        <ele>80.8</ele>
        <time>2024-08-31T14:37:24Z</time>
      </trkpt>
      <trkpt lat="44.21998" lon="4.47988">
        <ele>80.8</ele>
        <time>2024-08-31T14:37:25Z</time>
      </trkpt>
      <trkpt lat="44.21997" lon="4.47989">
        <ele>80.8</ele>
        <time>2024-08-31T14:37:26Z</time>
      </trkpt>
      <trkpt lat="44.21996" lon="4.47991">
        <ele>80.8</ele>
        <time>2024-08-31T14:37:27Z</time>
      </trkpt>
      <trkpt lat="44.21995" lon="4.47993">
        <ele>80.7</ele>
        <time>2024-08-31T14:37:28Z</time>
      </trkpt>
      <trkpt lat="44.21994" lon="4.47994">
        <ele>80.7</ele>
        <time>2024-08-31T14:37:29Z</time>
      </trkpt>
      <trkpt lat="44.21991" lon="4.47996">
        <ele>80.7</ele>
        <time>2024-08-31T14:37:30Z</time>
      </trkpt>
      <trkpt lat="44.2199" lon="4.47997">
        <ele>80.7</ele>
        <time>2024-08-31T14:37:31Z</time>
      </trkpt>
      <trkpt lat="44.21989" lon="4.48001">
        <ele>80.7</ele>
        <time>2024-08-31T14:37:32Z</time>
      </trkpt>
      <trkpt lat="44.21989" lon="4.48003">
        <ele>80.7</ele>
        <time>2024-08-31T14:37:33Z</time>
      </trkpt>
      <trkpt lat="44.21989" lon="4.48008">
        <ele>80.7</ele>
        <time>2024-08-31T14:37:34Z</time>
      </trkpt>
      <trkpt lat="44.21989" lon="4.48009">
        <ele>80.7</ele>
        <time>2024-08-31T14:37:35Z</time>
      </trkpt>
      <trkpt lat="44.21992" lon="4.48013">
        <ele>80.7</ele>
        <time>2024-08-31T14:37:36Z</time>
      </trkpt>
      <trkpt lat="44.21992" lon="4.48013">
        <ele>80.7</ele>
        <time>2024-08-31T14:37:37Z</time>
      </trkpt>
      <trkpt lat="44.21995" lon="4.48014">
        <ele>80.7</ele>
        <time>2024-08-31T14:37:38Z</time>
      </trkpt>
      <trkpt lat="44.21996" lon="4.48015">
        <ele>80.7</ele>
        <time>2024-08-31T14:37:39Z</time>
      </trkpt>
      <trkpt lat="44.22" lon="4.48013">
        <ele>80.7</ele>
        <time>2024-08-31T14:37:40Z</time>
      </trkpt>
      <trkpt lat="44.22002" lon="4.48012">
        <ele>80.7</ele>
        <time>2024-08-31T14:37:41Z</time>
      </trkpt>
      <trkpt lat="44.22004" lon="4.48009">
        <ele>80.7</ele>
        <time>2024-08-31T14:37:42Z</time>
      </trkpt>
      <trkpt lat="44.22004" lon="4.48007">
        <ele>80.7</ele>
        <time>2024-08-31T14:37:43Z</time>
      </trkpt>
      <trkpt lat="44.22003" lon="4.48002">
        <ele>80.7</ele>
        <time>2024-08-31T14:37:44Z</time>
      </trkpt>
      <trkpt lat="44.22003" lon="4.48">
        <ele>80.7</ele>
        <time>2024-08-31T14:37:45Z</time>
      </trkpt>
      <trkpt lat="44.22003" lon="4.47996">
        <ele>80.7</ele>
        <time>2024-08-31T14:37:46Z</time>
      </trkpt>
      <trkpt lat="44.22004" lon="4.47995">
        <ele>80.7</ele>
        <time>2024-08-31T14:37:47Z</time>
      </trkpt>
      <trkpt lat="44.22005" lon="4.47994">
        <ele>80.7</ele>
        <time>2024-08-31T14:37:48Z</time>
      </trkpt>
      <trkpt lat="44.22005" lon="4.47992">
        <ele>80.7</ele>
        <time>2024-08-31T14:37:49Z</time>
      </trkpt>
      <trkpt lat="44.22005" lon="4.47992">
        <ele>80.7</ele>
        <time>2024-08-31T14:37:50Z</time>
      </trkpt>
      <trkpt lat="44.22004" lon="4.47989">
        <ele>80.8</ele>
        <time>2024-08-31T14:37:52Z</time>
      </trkpt>
    </trkseg>
  </trk>
</gpx>